PWSweather.com
Personal Weather Stations
Station Observations
2450ARBOR
Round Rock, TX 78681

Round Rock, TX 78681

Lat: 30.535239, Lon: -97.728137

Elevation: 800

Station Type:

High Low Average
Temperature 69.6°F20.9°C 44.4°F6.9°C 63.6°F17.6°C
Dew Point 67.2°F19.6°C 42.2°F5.7°C 61.5°F16.4°C
Winds 4.7 mph 7.6 kmh Calm Calm Calm SCalm S
Wind Gusts 4.7 mph7.6 kmh -- 1.0 mph1.6 kmh
Humidity 96% 89% 93%
Pressure 29.15 in987.1 mb 29.04 in983.4 mb -
Precipitation 0.21 in5.3 mm - -
Hour Temp Dew Point Humidity Winds Wind Gusts Pressure Precip Precip Rate Daily Precip Total
12:00 AM 68.9°F20.5°C 66.2°F19.0°C 91% Calm Calm 2.7 mph4.3 kmh 29.04 in983.4 mb 0.00 in0.0 mm 0.00 in0.0 mm 0.00 in0.0 mm
12:01 AM 68.9°F20.5°C 66.2°F19.0°C 91% 1.1 mph SSW1.8 kmh SSW 4.7 mph7.6 kmh 29.04 in983.4 mb 0.00 in0.0 mm 0.00 in0.0 mm 0.00 in0.0 mm
12:02 AM 68.9°F20.5°C 66.2°F19.0°C 91% 1.1 mph SSW1.8 kmh SSW 4.7 mph7.6 kmh 29.04 in983.4 mb 0.00 in0.0 mm 0.00 in0.0 mm 0.00 in0.0 mm
12:03 AM 68.9°F20.5°C 66.2°F19.0°C 91% Calm Calm 4.7 mph7.6 kmh 29.05 in983.7 mb 0.00 in0.0 mm 0.00 in0.0 mm 0.00 in0.0 mm
12:04 AM 68.9°F20.5°C 66.2°F19.0°C 91% Calm Calm 4.7 mph7.6 kmh 29.05 in983.7 mb 0.00 in0.0 mm 0.00 in0.0 mm 0.00 in0.0 mm
12:05 AM 68.9°F20.5°C 66.2°F19.0°C 91% Calm Calm 4.7 mph7.6 kmh 29.05 in983.7 mb 0.00 in0.0 mm 0.00 in0.0 mm 0.00 in0.0 mm
12:06 AM 68.9°F20.5°C 66.2°F19.0°C 91% Calm Calm 4.7 mph7.6 kmh 29.05 in983.7 mb 0.00 in0.0 mm 0.00 in0.0 mm 0.00 in0.0 mm
12:07 AM 68.9°F20.5°C 66.2°F19.0°C 91% 3.2 mph S5.1 kmh S 4.7 mph7.6 kmh 29.05 in983.7 mb 0.00 in0.0 mm 0.00 in0.0 mm 0.00 in0.0 mm
12:08 AM 68.9°F20.5°C 66.2°F19.0°C 91% Calm Calm 4.7 mph7.6 kmh 29.05 in983.7 mb 0.00 in0.0 mm 0.00 in0.0 mm 0.00 in0.0 mm
12:09 AM 68.9°F20.5°C 66.2°F19.0°C 91% Calm Calm 4.7 mph7.6 kmh 29.05 in983.7 mb 0.00 in0.0 mm 0.00 in0.0 mm 0.00 in0.0 mm
12:10 AM 68.9°F20.5°C 66.2°F19.0°C 91% 1.1 mph S1.8 kmh S 4.7 mph7.6 kmh 29.05 in983.7 mb 0.00 in0.0 mm 0.00 in0.0 mm 0.00 in0.0 mm
12:11 AM 68.9°F20.5°C 66.2°F19.0°C 91% Calm Calm 3.2 mph5.1 kmh 29.05 in983.7 mb 0.00 in0.0 mm 0.00 in0.0 mm 0.00 in0.0 mm
12:12 AM 68.9°F20.5°C 66.2°F19.0°C 91% Calm Calm 3.2 mph5.1 kmh 29.05 in983.7 mb 0.00 in0.0 mm 0.00 in0.0 mm 0.00 in0.0 mm
12:13 AM 68.9°F20.5°C 66.2°F19.0°C 91% Calm Calm 3.2 mph5.1 kmh 29.05 in983.7 mb 0.00 in0.0 mm 0.00 in0.0 mm 0.00 in0.0 mm
12:14 AM 68.9°F20.5°C 66.2°F19.0°C 91% Calm Calm 3.2 mph5.1 kmh 29.05 in983.7 mb 0.00 in0.0 mm 0.00 in0.0 mm 0.00 in0.0 mm
12:15 AM 68.9°F20.5°C 66.2°F19.0°C 91% Calm Calm 3.2 mph5.1 kmh 29.05 in983.7 mb 0.00 in0.0 mm 0.00 in0.0 mm 0.00 in0.0 mm
12:16 AM 68.9°F20.5°C 66.2°F19.0°C 91% Calm Calm 3.2 mph5.1 kmh 29.05 in983.7 mb 0.00 in0.0 mm 0.00 in0.0 mm 0.00 in0.0 mm
12:17 AM 68.9°F20.5°C 66.2°F19.0°C 91% Calm Calm 3.2 mph5.1 kmh 29.05 in983.7 mb 0.00 in0.0 mm 0.00 in0.0 mm 0.00 in0.0 mm
12:18 AM 68.9°F20.5°C 66.2°F19.0°C 91% 1.7 mph SSW2.7 kmh SSW 1.7 mph2.7 kmh 29.05 in983.7 mb 0.00 in0.0 mm 0.00 in0.0 mm 0.00 in0.0 mm
12:19 AM 68.9°F20.5°C 66.2°F19.0°C 91% 2.2 mph SSW3.5 kmh SSW 2.2 mph3.5 kmh 29.05 in983.7 mb 0.00 in0.0 mm 0.00 in0.0 mm 0.00 in0.0 mm
12:20 AM 68.9°F20.5°C 66.2°F19.0°C 91% 1.1 mph S1.8 kmh S 2.2 mph3.5 kmh 29.05 in983.7 mb 0.00 in0.0 mm 0.00 in0.0 mm 0.00 in0.0 mm
12:21 AM 68.9°F20.5°C 66.5°F19.2°C 92% Calm Calm 2.2 mph3.5 kmh 29.05 in983.7 mb 0.00 in0.0 mm 0.00 in0.0 mm 0.00 in0.0 mm
12:22 AM 68.9°F20.5°C 66.5°F19.2°C 92% 1.7 mph N2.7 kmh N 2.2 mph3.5 kmh 29.05 in983.7 mb 0.00 in0.0 mm 0.00 in0.0 mm 0.00 in0.0 mm
12:23 AM 68.9°F20.5°C 66.5°F19.2°C 92% Calm Calm 2.2 mph3.5 kmh 29.05 in983.7 mb 0.00 in0.0 mm 0.00 in0.0 mm 0.00 in0.0 mm
12:24 AM 69.1°F20.6°C 66.7°F19.3°C 92% Calm Calm 2.2 mph3.5 kmh 29.05 in983.7 mb 0.00 in0.0 mm 0.00 in0.0 mm 0.00 in0.0 mm
12:25 AM 69.1°F20.6°C 66.7°F19.3°C 92% Calm Calm 2.2 mph3.5 kmh 29.05 in983.7 mb 0.00 in0.0 mm 0.00 in0.0 mm 0.00 in0.0 mm
12:26 AM 69.1°F20.6°C 66.7°F19.3°C 92% Calm Calm 2.2 mph3.5 kmh 29.05 in983.7 mb 0.00 in0.0 mm 0.00 in0.0 mm 0.00 in0.0 mm
12:27 AM 69.1°F20.6°C 66.7°F19.3°C 92% Calm Calm 2.2 mph3.5 kmh 29.05 in983.7 mb 0.00 in0.0 mm 0.00 in0.0 mm 0.00 in0.0 mm
12:28 AM 69.1°F20.6°C 66.7°F19.3°C 92% Calm Calm 2.2 mph3.5 kmh 29.05 in983.7 mb 0.00 in0.0 mm 0.00 in0.0 mm 0.00 in0.0 mm
12:29 AM 69.1°F20.6°C 66.7°F19.3°C 92% Calm Calm 1.7 mph2.7 kmh 29.05 in983.7 mb 0.00 in0.0 mm 0.00 in0.0 mm 0.00 in0.0 mm
12:30 AM 69.1°F20.6°C 66.7°F19.3°C 92% Calm Calm 1.7 mph2.7 kmh 29.05 in983.7 mb 0.00 in0.0 mm 0.00 in0.0 mm 0.00 in0.0 mm
12:31 AM 69.1°F20.6°C 66.7°F19.3°C 92% Calm Calm 1.7 mph2.7 kmh 29.05 in983.7 mb 0.00 in0.0 mm 0.00 in0.0 mm 0.00 in0.0 mm
12:32 AM 69.1°F20.6°C 66.7°F19.3°C 92% Calm Calm 1.7 mph2.7 kmh 29.05 in983.7 mb 0.00 in0.0 mm 0.00 in0.0 mm 0.00 in0.0 mm
12:33 AM 69.3°F20.7°C 66.9°F19.4°C 92% Calm Calm 1.7 mph2.7 kmh 29.05 in983.7 mb 0.00 in0.0 mm 0.00 in0.0 mm 0.00 in0.0 mm
12:34 AM 69.3°F20.7°C 66.9°F19.4°C 92% Calm Calm 1.7 mph2.7 kmh 29.05 in983.7 mb 0.00 in0.0 mm 0.00 in0.0 mm 0.00 in0.0 mm
12:35 AM 69.3°F20.7°C 66.9°F19.4°C 92% Calm Calm 1.1 mph1.8 kmh 29.05 in983.7 mb 0.00 in0.0 mm 0.00 in0.0 mm 0.00 in0.0 mm
12:36 AM 69.3°F20.7°C 66.9°F19.4°C 92% Calm Calm -- 29.05 in983.7 mb 0.00 in0.0 mm 0.00 in0.0 mm 0.00 in0.0 mm
12:37 AM 69.3°F20.7°C 66.9°F19.4°C 92% Calm Calm -- 29.05 in983.7 mb 0.00 in0.0 mm 0.00 in0.0 mm 0.00 in0.0 mm
12:38 AM 69.3°F20.7°C 66.9°F19.4°C 92% Calm Calm -- 29.05 in983.7 mb 0.00 in0.0 mm 0.00 in0.0 mm 0.00 in0.0 mm
12:39 AM 69.3°F20.7°C 66.9°F19.4°C 92% Calm Calm -- 29.05 in983.7 mb 0.00 in0.0 mm 0.00 in0.0 mm 0.00 in0.0 mm
12:40 AM 69.3°F20.7°C 66.9°F19.4°C 92% Calm Calm -- 29.05 in983.7 mb 0.00 in0.0 mm 0.00 in0.0 mm 0.00 in0.0 mm
12:41 AM 69.3°F20.7°C 66.9°F19.4°C 92% Calm Calm -- 29.05 in983.7 mb 0.00 in0.0 mm 0.00 in0.0 mm 0.00 in0.0 mm
12:42 AM 69.3°F20.7°C 66.9°F19.4°C 92% Calm Calm -- 29.05 in983.7 mb 0.00 in0.0 mm 0.00 in0.0 mm 0.00 in0.0 mm
12:43 AM 69.3°F20.7°C 66.9°F19.4°C 92% Calm Calm -- 29.05 in983.7 mb 0.00 in0.0 mm 0.00 in0.0 mm 0.00 in0.0 mm
12:44 AM 69.3°F20.7°C 66.9°F19.4°C 92% Calm Calm -- 29.05 in983.7 mb 0.00 in0.0 mm 0.00 in0.0 mm 0.00 in0.0 mm
12:45 AM 69.3°F20.7°C 66.9°F19.4°C 92% Calm Calm -- 29.05 in983.7 mb 0.00 in0.0 mm 0.00 in0.0 mm 0.00 in0.0 mm
12:46 AM 69.3°F20.7°C 66.9°F19.4°C 92% Calm Calm -- 29.05 in983.7 mb 0.00 in0.0 mm 0.00 in0.0 mm 0.00 in0.0 mm
12:47 AM 69.3°F20.7°C 66.9°F19.4°C 92% Calm Calm -- 29.05 in983.7 mb 0.00 in0.0 mm 0.00 in0.0 mm 0.00 in0.0 mm
12:48 AM 69.3°F20.7°C 66.9°F19.4°C 92% Calm Calm -- 29.05 in983.7 mb 0.00 in0.0 mm 0.00 in0.0 mm 0.00 in0.0 mm
12:49 AM 69.3°F20.7°C 66.9°F19.4°C 92% Calm Calm -- 29.05 in983.7 mb 0.00 in0.0 mm 0.00 in0.0 mm 0.00 in0.0 mm
12:50 AM 69.3°F20.7°C 66.9°F19.4°C 92% Calm Calm -- 29.05 in983.7 mb 0.00 in0.0 mm 0.00 in0.0 mm 0.00 in0.0 mm
12:51 AM 69.3°F20.7°C 66.9°F19.4°C 92% Calm Calm -- 29.05 in983.7 mb 0.00 in0.0 mm 0.00 in0.0 mm 0.00 in0.0 mm
12:52 AM 69.3°F20.7°C 66.9°F19.4°C 92% 3.7 mph S6.0 kmh S 3.7 mph6.0 kmh 29.05 in983.7 mb 0.00 in0.0 mm 0.00 in0.0 mm 0.00 in0.0 mm
12:53 AM 69.3°F20.7°C 66.9°F19.4°C 92% 2.7 mph S4.3 kmh S 3.7 mph6.0 kmh 29.05 in983.7 mb 0.00 in0.0 mm 0.00 in0.0 mm 0.00 in0.0 mm
12:54 AM 69.3°F20.7°C 66.9°F19.4°C 92% Calm Calm 3.7 mph6.0 kmh 29.05 in983.7 mb 0.00 in0.0 mm 0.00 in0.0 mm 0.00 in0.0 mm
12:55 AM 69.4°F20.8°C 67.0°F19.4°C 92% 1.1 mph ESE1.8 kmh ESE 3.7 mph6.0 kmh 29.05 in983.7 mb 0.00 in0.0 mm 0.00 in0.0 mm 0.00 in0.0 mm
12:56 AM 69.4°F20.8°C 67.0°F19.4°C 92% Calm Calm 3.7 mph6.0 kmh 29.05 in983.7 mb 0.00 in0.0 mm 0.00 in0.0 mm 0.00 in0.0 mm
12:57 AM 69.4°F20.8°C 67.0°F19.4°C 92% Calm Calm 3.7 mph6.0 kmh 29.05 in983.7 mb 0.00 in0.0 mm 0.00 in0.0 mm 0.00 in0.0 mm
12:58 AM 69.4°F20.8°C 67.0°F19.4°C 92% Calm Calm 3.7 mph6.0 kmh 29.05 in983.7 mb 0.00 in0.0 mm 0.00 in0.0 mm 0.00 in0.0 mm
12:59 AM 69.4°F20.8°C 67.0°F19.4°C 92% 1.1 mph SSW1.8 kmh SSW 3.7 mph6.0 kmh 29.05 in983.7 mb 0.00 in0.0 mm 0.00 in0.0 mm 0.00 in0.0 mm
01:00 AM 69.4°F20.8°C 67.0°F19.4°C 92% 1.1 mph SSE1.8 kmh SSE 4.2 mph6.8 kmh 29.05 in983.7 mb 0.00 in0.0 mm 0.00 in0.0 mm 0.00 in0.0 mm
01:01 AM 69.4°F20.8°C 67.0°F19.4°C 92% 4.2 mph ESE6.8 kmh ESE 4.2 mph6.8 kmh 29.05 in983.7 mb 0.00 in0.0 mm 0.00 in0.0 mm 0.00 in0.0 mm
01:02 AM 69.4°F20.8°C 67.0°F19.4°C 92% Calm Calm 4.2 mph6.8 kmh 29.05 in983.7 mb 0.00 in0.0 mm 0.00 in0.0 mm 0.00 in0.0 mm
01:03 AM 69.4°F20.8°C 67.0°F19.4°C 92% Calm Calm 4.2 mph6.8 kmh 29.05 in983.7 mb 0.00 in0.0 mm 0.00 in0.0 mm 0.00 in0.0 mm
01:04 AM 69.4°F20.8°C 67.0°F19.4°C 92% Calm Calm 4.2 mph6.8 kmh 29.05 in983.7 mb 0.00 in0.0 mm 0.00 in0.0 mm 0.00 in0.0 mm
01:05 AM 69.4°F20.8°C 67.0°F19.4°C 92% Calm Calm 4.2 mph6.8 kmh 29.05 in983.7 mb 0.00 in0.0 mm 0.00 in0.0 mm 0.00 in0.0 mm
01:06 AM 69.4°F20.8°C 67.0°F19.4°C 92% 2.7 mph S4.3 kmh S 4.2 mph6.8 kmh 29.05 in983.7 mb 0.00 in0.0 mm 0.00 in0.0 mm 0.00 in0.0 mm
01:07 AM 69.4°F20.8°C 67.0°F19.4°C 92% 1.7 mph SSW2.7 kmh SSW 4.2 mph6.8 kmh 29.05 in983.7 mb 0.00 in0.0 mm 0.00 in0.0 mm 0.00 in0.0 mm
01:08 AM 69.4°F20.8°C 67.0°F19.4°C 92% Calm Calm 4.2 mph6.8 kmh 29.05 in983.7 mb 0.00 in0.0 mm 0.00 in0.0 mm 0.00 in0.0 mm
01:09 AM 69.4°F20.8°C 67.0°F19.4°C 92% Calm Calm 4.2 mph6.8 kmh 29.05 in983.7 mb 0.00 in0.0 mm 0.00 in0.0 mm 0.00 in0.0 mm
01:10 AM 69.4°F20.8°C 67.0°F19.4°C 92% 1.7 mph ENE2.7 kmh ENE 4.2 mph6.8 kmh 29.05 in983.7 mb 0.00 in0.0 mm 0.00 in0.0 mm 0.00 in0.0 mm
01:11 AM 69.4°F20.8°C 67.0°F19.4°C 92% 1.1 mph E1.8 kmh E 2.7 mph4.3 kmh 29.05 in983.7 mb 0.00 in0.0 mm 0.00 in0.0 mm 0.00 in0.0 mm
01:12 AM 69.4°F20.8°C 67.0°F19.4°C 92% 1.1 mph NNE1.8 kmh NNE 2.7 mph4.3 kmh 29.05 in983.7 mb 0.00 in0.0 mm 0.00 in0.0 mm 0.00 in0.0 mm
01:13 AM 69.4°F20.8°C 67.0°F19.4°C 92% Calm Calm 3.7 mph6.0 kmh 29.05 in983.7 mb 0.00 in0.0 mm 0.00 in0.0 mm 0.00 in0.0 mm
01:14 AM 69.4°F20.8°C 67.0°F19.4°C 92% 1.1 mph SSW1.8 kmh SSW 3.7 mph6.0 kmh 29.05 in983.7 mb 0.00 in0.0 mm 0.00 in0.0 mm 0.00 in0.0 mm
01:15 AM 69.6°F20.9°C 67.2°F19.6°C 92% Calm Calm 3.7 mph6.0 kmh 29.05 in983.7 mb 0.00 in0.0 mm 0.00 in0.0 mm 0.00 in0.0 mm
01:16 AM 69.6°F20.9°C 67.2°F19.6°C 92% Calm Calm 3.7 mph6.0 kmh 29.04 in983.4 mb 0.00 in0.0 mm 0.00 in0.0 mm 0.00 in0.0 mm
01:17 AM 69.6°F20.9°C 67.2°F19.6°C 92% Calm Calm 3.7 mph6.0 kmh 29.04 in983.4 mb 0.00 in0.0 mm 0.00 in0.0 mm 0.00 in0.0 mm
01:18 AM 69.6°F20.9°C 66.9°F19.4°C 91% Calm Calm 3.7 mph6.0 kmh 29.04 in983.4 mb 0.00 in0.0 mm 0.00 in0.0 mm 0.00 in0.0 mm
01:19 AM 69.6°F20.9°C 66.9°F19.4°C 91% Calm Calm 3.7 mph6.0 kmh 29.04 in983.4 mb 0.00 in0.0 mm 0.00 in0.0 mm 0.00 in0.0 mm
01:20 AM 69.6°F20.9°C 66.9°F19.4°C 91% Calm Calm 3.7 mph6.0 kmh 29.04 in983.4 mb 0.00 in0.0 mm 0.00 in0.0 mm 0.00 in0.0 mm
01:21 AM 69.6°F20.9°C 66.9°F19.4°C 91% Calm Calm 3.7 mph6.0 kmh 29.04 in983.4 mb 0.00 in0.0 mm 0.00 in0.0 mm 0.00 in0.0 mm
01:22 AM 69.6°F20.9°C 66.9°F19.4°C 91% Calm Calm 3.7 mph6.0 kmh 29.04 in983.4 mb 0.00 in0.0 mm 0.00 in0.0 mm 0.00 in0.0 mm
01:23 AM 69.6°F20.9°C 66.9°F19.4°C 91% Calm Calm 1.7 mph2.7 kmh 29.04 in983.4 mb 0.00 in0.0 mm 0.00 in0.0 mm 0.00 in0.0 mm
01:24 AM 69.6°F20.9°C 66.9°F19.4°C 91% Calm Calm 1.7 mph2.7 kmh 29.04 in983.4 mb 0.00 in0.0 mm 0.00 in0.0 mm 0.00 in0.0 mm
01:25 AM 69.6°F20.9°C 66.9°F19.4°C 91% Calm Calm 1.1 mph1.8 kmh 29.04 in983.4 mb 0.00 in0.0 mm 0.00 in0.0 mm 0.00 in0.0 mm
01:26 AM 69.6°F20.9°C 66.9°F19.4°C 91% Calm Calm 1.1 mph1.8 kmh 29.04 in983.4 mb 0.00 in0.0 mm 0.00 in0.0 mm 0.00 in0.0 mm
01:27 AM 69.6°F20.9°C 66.9°F19.4°C 91% Calm Calm 1.1 mph1.8 kmh 29.04 in983.4 mb 0.00 in0.0 mm 0.00 in0.0 mm 0.00 in0.0 mm
01:28 AM 69.6°F20.9°C 66.9°F19.4°C 91% Calm Calm 1.1 mph1.8 kmh 29.04 in983.4 mb 0.00 in0.0 mm 0.00 in0.0 mm 0.00 in0.0 mm
01:29 AM 69.6°F20.9°C 66.9°F19.4°C 91% Calm Calm 1.1 mph1.8 kmh 29.04 in983.4 mb 0.00 in0.0 mm 0.00 in0.0 mm 0.00 in0.0 mm
01:30 AM 69.6°F20.9°C 66.9°F19.4°C 91% Calm Calm -- 29.04 in983.4 mb 0.00 in0.0 mm 0.00 in0.0 mm 0.00 in0.0 mm
01:31 AM 69.6°F20.9°C 66.9°F19.4°C 91% Calm Calm -- 29.04 in983.4 mb 0.00 in0.0 mm 0.00 in0.0 mm 0.00 in0.0 mm
01:32 AM 69.6°F20.9°C 66.9°F19.4°C 91% Calm Calm -- 29.04 in983.4 mb 0.00 in0.0 mm 0.00 in0.0 mm 0.00 in0.0 mm
01:33 AM 69.6°F20.9°C 66.9°F19.4°C 91% Calm Calm -- 29.04 in983.4 mb 0.00 in0.0 mm 0.00 in0.0 mm 0.00 in0.0 mm
01:34 AM 69.6°F20.9°C 66.9°F19.4°C 91% Calm Calm -- 29.04 in983.4 mb 0.00 in0.0 mm 0.00 in0.0 mm 0.00 in0.0 mm
01:35 AM 69.6°F20.9°C 66.9°F19.4°C 91% 1.7 mph NE2.7 kmh NE 1.7 mph2.7 kmh 29.04 in983.4 mb 0.00 in0.0 mm 0.00 in0.0 mm 0.00 in0.0 mm
01:36 AM 69.6°F20.9°C 66.9°F19.4°C 91% 2.7 mph S4.3 kmh S 2.7 mph4.3 kmh 29.04 in983.4 mb 0.00 in0.0 mm 0.00 in0.0 mm 0.00 in0.0 mm
01:37 AM 69.6°F20.9°C 66.9°F19.4°C 91% Calm Calm 2.7 mph4.3 kmh 29.04 in983.4 mb 0.00 in0.0 mm 0.00 in0.0 mm 0.00 in0.0 mm
01:38 AM 69.6°F20.9°C 66.9°F19.4°C 91% 1.1 mph SSW1.8 kmh SSW 2.7 mph4.3 kmh 29.04 in983.4 mb 0.00 in0.0 mm 0.00 in0.0 mm 0.00 in0.0 mm
01:39 AM 69.6°F20.9°C 66.9°F19.4°C 91% 2.7 mph S4.3 kmh S 2.7 mph4.3 kmh 29.04 in983.4 mb 0.00 in0.0 mm 0.00 in0.0 mm 0.00 in0.0 mm
01:40 AM 69.6°F20.9°C 66.9°F19.4°C 91% Calm Calm 2.7 mph4.3 kmh 29.04 in983.4 mb 0.00 in0.0 mm 0.00 in0.0 mm 0.00 in0.0 mm
01:41 AM 69.6°F20.9°C 66.9°F19.4°C 91% Calm Calm 2.7 mph4.3 kmh 29.04 in983.4 mb 0.00 in0.0 mm 0.00 in0.0 mm 0.00 in0.0 mm
01:42 AM 69.6°F20.9°C 66.9°F19.4°C 91% 2.2 mph S3.5 kmh S 2.7 mph4.3 kmh 29.04 in983.4 mb 0.00 in0.0 mm 0.00 in0.0 mm 0.00 in0.0 mm
01:43 AM 69.6°F20.9°C 66.9°F19.4°C 91% Calm Calm 2.7 mph4.3 kmh 29.04 in983.4 mb 0.00 in0.0 mm 0.00 in0.0 mm 0.00 in0.0 mm
01:44 AM 69.6°F20.9°C 66.9°F19.4°C 91% Calm Calm 2.7 mph4.3 kmh 29.04 in983.4 mb 0.00 in0.0 mm 0.00 in0.0 mm 0.00 in0.0 mm
01:45 AM 69.6°F20.9°C 66.9°F19.4°C 91% Calm Calm 2.7 mph4.3 kmh 29.04 in983.4 mb 0.00 in0.0 mm 0.00 in0.0 mm 0.00 in0.0 mm
01:46 AM 69.6°F20.9°C 66.9°F19.4°C 91% Calm Calm 2.7 mph4.3 kmh 29.04 in983.4 mb 0.00 in0.0 mm 0.00 in0.0 mm 0.00 in0.0 mm
01:47 AM 69.6°F20.9°C 66.9°F19.4°C 91% Calm Calm 2.7 mph4.3 kmh 29.04 in983.4 mb 0.00 in0.0 mm 0.00 in0.0 mm 0.00 in0.0 mm
01:48 AM 69.6°F20.9°C 66.9°F19.4°C 91% Calm Calm 2.7 mph4.3 kmh 29.04 in983.4 mb 0.00 in0.0 mm 0.00 in0.0 mm 0.00 in0.0 mm
01:49 AM 69.6°F20.9°C 66.9°F19.4°C 91% Calm Calm 2.7 mph4.3 kmh 29.04 in983.4 mb 0.00 in0.0 mm 0.00 in0.0 mm 0.00 in0.0 mm
01:50 AM 69.6°F20.9°C 66.9°F19.4°C 91% Calm Calm 2.2 mph3.5 kmh 29.04 in983.4 mb 0.00 in0.0 mm 0.00 in0.0 mm 0.00 in0.0 mm
01:51 AM 69.6°F20.9°C 66.9°F19.4°C 91% Calm Calm 2.2 mph3.5 kmh 29.04 in983.4 mb 0.00 in0.0 mm 0.00 in0.0 mm 0.00 in0.0 mm
01:52 AM 69.6°F20.9°C 66.9°F19.4°C 91% 1.1 mph ENE1.8 kmh ENE 2.2 mph3.5 kmh 29.05 in983.7 mb 0.00 in0.0 mm 0.00 in0.0 mm 0.00 in0.0 mm
01:53 AM 69.6°F20.9°C 66.9°F19.4°C 91% 2.7 mph S4.3 kmh S 2.7 mph4.3 kmh 29.05 in983.7 mb 0.00 in0.0 mm 0.00 in0.0 mm 0.00 in0.0 mm
01:54 AM 69.6°F20.9°C 66.9°F19.4°C 91% Calm Calm 2.7 mph4.3 kmh 29.05 in983.7 mb 0.00 in0.0 mm 0.00 in0.0 mm 0.00 in0.0 mm
01:55 AM 69.6°F20.9°C 66.9°F19.4°C 91% 1.1 mph S1.8 kmh S 2.7 mph4.3 kmh 29.05 in983.7 mb 0.00 in0.0 mm 0.00 in0.0 mm 0.00 in0.0 mm
01:56 AM 69.6°F20.9°C 66.9°F19.4°C 91% Calm Calm 2.7 mph4.3 kmh 29.05 in983.7 mb 0.00 in0.0 mm 0.00 in0.0 mm 0.00 in0.0 mm
01:57 AM 69.6°F20.9°C 66.9°F19.4°C 91% Calm Calm 2.7 mph4.3 kmh 29.05 in983.7 mb 0.00 in0.0 mm 0.00 in0.0 mm 0.00 in0.0 mm
01:58 AM 69.6°F20.9°C 66.9°F19.4°C 91% Calm Calm 2.7 mph4.3 kmh 29.05 in983.7 mb 0.00 in0.0 mm 0.00 in0.0 mm 0.00 in0.0 mm
01:59 AM 69.6°F20.9°C 66.9°F19.4°C 91% Calm Calm 2.7 mph4.3 kmh 29.05 in983.7 mb 0.00 in0.0 mm 0.00 in0.0 mm 0.00 in0.0 mm
02:00 AM 69.6°F20.9°C 66.9°F19.4°C 91% Calm Calm 2.7 mph4.3 kmh 29.05 in983.7 mb 0.00 in0.0 mm 0.00 in0.0 mm 0.00 in0.0 mm
02:01 AM 69.6°F20.9°C 66.9°F19.4°C 91% Calm Calm 2.7 mph4.3 kmh 29.05 in983.7 mb 0.00 in0.0 mm 0.00 in0.0 mm 0.00 in0.0 mm
02:02 AM 69.6°F20.9°C 66.9°F19.4°C 91% Calm Calm 2.7 mph4.3 kmh 29.05 in983.7 mb 0.00 in0.0 mm 0.00 in0.0 mm 0.00 in0.0 mm
02:03 AM 69.6°F20.9°C 66.9°F19.4°C 91% Calm Calm 2.2 mph3.5 kmh 29.05 in983.7 mb 0.00 in0.0 mm 0.00 in0.0 mm 0.00 in0.0 mm
02:04 AM 69.6°F20.9°C 66.9°F19.4°C 91% Calm Calm 2.2 mph3.5 kmh 29.05 in983.7 mb 0.00 in0.0 mm 0.00 in0.0 mm 0.00 in0.0 mm
02:05 AM 69.6°F20.9°C 66.9°F19.4°C 91% Calm Calm -- 29.05 in983.7 mb 0.00 in0.0 mm 0.00 in0.0 mm 0.00 in0.0 mm
02:06 AM 69.6°F20.9°C 66.9°F19.4°C 91% Calm Calm 2.7 mph4.3 kmh 29.05 in983.7 mb 0.00 in0.0 mm 0.00 in0.0 mm 0.00 in0.0 mm
02:07 AM 69.6°F20.9°C 66.9°F19.4°C 91% Calm Calm 2.7 mph4.3 kmh 29.05 in983.7 mb 0.00 in0.0 mm 0.00 in0.0 mm 0.00 in0.0 mm
02:08 AM 69.6°F20.9°C 66.9°F19.4°C 91% 2.7 mph SSW4.3 kmh SSW 2.7 mph4.3 kmh 29.05 in983.7 mb 0.00 in0.0 mm 0.00 in0.0 mm 0.00 in0.0 mm
02:09 AM 69.6°F20.9°C 66.9°F19.4°C 91% 1.1 mph SSW1.8 kmh SSW 2.7 mph4.3 kmh 29.05 in983.7 mb 0.00 in0.0 mm 0.00 in0.0 mm 0.00 in0.0 mm
02:10 AM 69.6°F20.9°C 66.9°F19.4°C 91% Calm Calm 2.7 mph4.3 kmh 29.05 in983.7 mb 0.00 in0.0 mm 0.00 in0.0 mm 0.00 in0.0 mm
02:11 AM 69.6°F20.9°C 66.9°F19.4°C 91% Calm Calm 2.7 mph4.3 kmh 29.05 in983.7 mb 0.00 in0.0 mm 0.00 in0.0 mm 0.00 in0.0 mm
02:12 AM 69.6°F20.9°C 66.9°F19.4°C 91% 2.2 mph S3.5 kmh S 2.7 mph4.3 kmh 29.05 in983.7 mb 0.00 in0.0 mm 0.00 in0.0 mm 0.00 in0.0 mm
02:13 AM 69.6°F20.9°C 66.9°F19.4°C 91% Calm Calm 2.7 mph4.3 kmh 29.05 in983.7 mb 0.00 in0.0 mm 0.00 in0.0 mm 0.00 in0.0 mm
02:14 AM 69.6°F20.9°C 66.9°F19.4°C 91% Calm Calm 2.7 mph4.3 kmh 29.05 in983.7 mb 0.00 in0.0 mm 0.00 in0.0 mm 0.00 in0.0 mm
02:15 AM 69.6°F20.9°C 66.9°F19.4°C 91% Calm Calm 2.7 mph4.3 kmh 29.05 in983.7 mb 0.00 in0.0 mm 0.00 in0.0 mm 0.00 in0.0 mm
02:16 AM 69.6°F20.9°C 66.9°F19.4°C 91% Calm Calm 2.7 mph4.3 kmh 29.05 in983.7 mb 0.00 in0.0 mm 0.00 in0.0 mm 0.00 in0.0 mm
02:17 AM 69.6°F20.9°C 66.9°F19.4°C 91% Calm Calm 2.7 mph4.3 kmh 29.05 in983.7 mb 0.00 in0.0 mm 0.00 in0.0 mm 0.00 in0.0 mm
02:18 AM 69.6°F20.9°C 66.9°F19.4°C 91% 1.1 mph S1.8 kmh S 2.2 mph3.5 kmh 29.05 in983.7 mb 0.00 in0.0 mm 0.00 in0.0 mm 0.00 in0.0 mm
02:19 AM 69.6°F20.9°C 66.9°F19.4°C 91% Calm Calm 2.2 mph3.5 kmh 29.05 in983.7 mb 0.00 in0.0 mm 0.00 in0.0 mm 0.00 in0.0 mm
02:20 AM 69.6°F20.9°C 66.9°F19.4°C 91% Calm Calm 2.2 mph3.5 kmh 29.05 in983.7 mb 0.00 in0.0 mm 0.00 in0.0 mm 0.00 in0.0 mm
02:21 AM 69.6°F20.9°C 66.9°F19.4°C 91% Calm Calm 2.2 mph3.5 kmh 29.05 in983.7 mb 0.00 in0.0 mm 0.00 in0.0 mm 0.00 in0.0 mm
02:22 AM 69.6°F20.9°C 66.9°F19.4°C 91% Calm Calm 2.2 mph3.5 kmh 29.05 in983.7 mb 0.00 in0.0 mm 0.00 in0.0 mm 0.00 in0.0 mm
02:23 AM 69.6°F20.9°C 66.9°F19.4°C 91% Calm Calm 2.2 mph3.5 kmh 29.05 in983.7 mb 0.00 in0.0 mm 0.00 in0.0 mm 0.00 in0.0 mm
02:24 AM 69.4°F20.8°C 66.7°F19.3°C 91% Calm Calm 2.2 mph3.5 kmh 29.05 in983.7 mb 0.00 in0.0 mm 0.00 in0.0 mm 0.00 in0.0 mm
02:25 AM 69.4°F20.8°C 66.7°F19.3°C 91% Calm Calm 2.2 mph3.5 kmh 29.05 in983.7 mb 0.00 in0.0 mm 0.00 in0.0 mm 0.00 in0.0 mm
02:26 AM 69.4°F20.8°C 66.7°F19.3°C 91% Calm Calm 2.2 mph3.5 kmh 29.05 in983.7 mb 0.00 in0.0 mm 0.00 in0.0 mm 0.00 in0.0 mm
02:27 AM 69.4°F20.8°C 66.7°F19.3°C 91% Calm Calm 2.2 mph3.5 kmh 29.04 in983.4 mb 0.00 in0.0 mm 0.00 in0.0 mm 0.00 in0.0 mm
02:28 AM 69.4°F20.8°C 66.7°F19.3°C 91% Calm Calm 2.2 mph3.5 kmh 29.04 in983.4 mb 0.00 in0.0 mm 0.00 in0.0 mm 0.00 in0.0 mm
02:29 AM 69.4°F20.8°C 66.7°F19.3°C 91% Calm Calm -- 29.04 in983.4 mb 0.00 in0.0 mm 0.00 in0.0 mm 0.00 in0.0 mm
02:30 AM 69.4°F20.8°C 66.7°F19.3°C 91% Calm Calm -- 29.04 in983.4 mb 0.00 in0.0 mm 0.00 in0.0 mm 0.00 in0.0 mm
02:31 AM 69.4°F20.8°C 66.7°F19.3°C 91% Calm Calm -- 29.04 in983.4 mb 0.00 in0.0 mm 0.00 in0.0 mm 0.00 in0.0 mm
02:32 AM 69.4°F20.8°C 66.7°F19.3°C 91% Calm Calm -- 29.04 in983.4 mb 0.00 in0.0 mm 0.00 in0.0 mm 0.00 in0.0 mm
02:33 AM 69.4°F20.8°C 66.7°F19.3°C 91% Calm Calm -- 29.04 in983.4 mb 0.00 in0.0 mm 0.00 in0.0 mm 0.00 in0.0 mm
02:34 AM 69.4°F20.8°C 66.7°F19.3°C 91% Calm Calm -- 29.04 in983.4 mb 0.00 in0.0 mm 0.00 in0.0 mm 0.00 in0.0 mm
02:35 AM 69.4°F20.8°C 66.7°F19.3°C 91% Calm Calm -- 29.04 in983.4 mb 0.00 in0.0 mm 0.00 in0.0 mm 0.00 in0.0 mm
02:36 AM 69.4°F20.8°C 66.7°F19.3°C 91% Calm Calm -- 29.04 in983.4 mb 0.00 in0.0 mm 0.00 in0.0 mm 0.00 in0.0 mm
02:37 AM 69.4°F20.8°C 66.7°F19.3°C 91% Calm Calm -- 29.04 in983.4 mb 0.00 in0.0 mm 0.00 in0.0 mm 0.00 in0.0 mm
02:38 AM 69.4°F20.8°C 66.7°F19.3°C 91% Calm Calm -- 29.04 in983.4 mb 0.00 in0.0 mm 0.00 in0.0 mm 0.00 in0.0 mm
02:39 AM 69.4°F20.8°C 66.7°F19.3°C 91% Calm Calm -- 29.05 in983.7 mb 0.00 in0.0 mm 0.00 in0.0 mm 0.00 in0.0 mm
02:40 AM 69.4°F20.8°C 66.7°F19.3°C 91% Calm Calm -- 29.05 in983.7 mb 0.00 in0.0 mm 0.00 in0.0 mm 0.00 in0.0 mm
02:41 AM 69.4°F20.8°C 66.7°F19.3°C 91% 3.2 mph SSE5.1 kmh SSE 3.2 mph5.1 kmh 29.05 in983.7 mb 0.00 in0.0 mm 0.00 in0.0 mm 0.00 in0.0 mm
02:42 AM 69.4°F20.8°C 66.7°F19.3°C 91% 2.2 mph SSW3.5 kmh SSW 4.2 mph6.8 kmh 29.05 in983.7 mb 0.00 in0.0 mm 0.00 in0.0 mm 0.00 in0.0 mm
02:43 AM 69.4°F20.8°C 66.7°F19.3°C 91% Calm Calm 4.2 mph6.8 kmh 29.05 in983.7 mb 0.00 in0.0 mm 0.00 in0.0 mm 0.00 in0.0 mm
02:44 AM 69.4°F20.8°C 66.7°F19.3°C 91% 3.2 mph SSW5.1 kmh SSW 4.2 mph6.8 kmh 29.05 in983.7 mb 0.00 in0.0 mm 0.00 in0.0 mm 0.00 in0.0 mm
02:45 AM 69.4°F20.8°C 66.7°F19.3°C 91% 1.1 mph ESE1.8 kmh ESE 4.2 mph6.8 kmh 29.05 in983.7 mb 0.00 in0.0 mm 0.00 in0.0 mm 0.00 in0.0 mm
02:46 AM 69.4°F20.8°C 66.7°F19.3°C 91% 1.7 mph NNW2.7 kmh NNW 4.2 mph6.8 kmh 29.05 in983.7 mb 0.00 in0.0 mm 0.00 in0.0 mm 0.00 in0.0 mm
02:47 AM 69.4°F20.8°C 66.7°F19.3°C 91% Calm Calm 4.2 mph6.8 kmh 29.05 in983.7 mb 0.00 in0.0 mm 0.00 in0.0 mm 0.00 in0.0 mm
02:48 AM 69.4°F20.8°C 66.7°F19.3°C 91% Calm Calm 4.2 mph6.8 kmh 29.05 in983.7 mb 0.00 in0.0 mm 0.00 in0.0 mm 0.00 in0.0 mm
02:49 AM 69.4°F20.8°C 66.7°F19.3°C 91% Calm Calm 4.2 mph6.8 kmh 29.05 in983.7 mb 0.00 in0.0 mm 0.00 in0.0 mm 0.00 in0.0 mm
02:50 AM 69.4°F20.8°C 66.7°F19.3°C 91% Calm Calm 4.2 mph6.8 kmh 29.05 in983.7 mb 0.00 in0.0 mm 0.00 in0.0 mm 0.00 in0.0 mm
02:51 AM 69.4°F20.8°C 66.7°F19.3°C 91% Calm Calm 4.2 mph6.8 kmh 29.05 in983.7 mb 0.00 in0.0 mm 0.00 in0.0 mm 0.00 in0.0 mm
02:52 AM 69.4°F20.8°C 66.7°F19.3°C 91% Calm Calm 3.2 mph5.1 kmh 29.05 in983.7 mb 0.00 in0.0 mm 0.00 in0.0 mm 0.00 in0.0 mm
02:53 AM 69.4°F20.8°C 66.7°F19.3°C 91% Calm Calm 3.2 mph5.1 kmh 29.05 in983.7 mb 0.00 in0.0 mm 0.00 in0.0 mm 0.00 in0.0 mm
02:54 AM 69.4°F20.8°C 66.7°F19.3°C 91% Calm Calm 3.2 mph5.1 kmh 29.05 in983.7 mb 0.00 in0.0 mm 0.00 in0.0 mm 0.00 in0.0 mm
02:55 AM 69.4°F20.8°C 66.7°F19.3°C 91% Calm Calm 2.2 mph3.5 kmh 29.05 in983.7 mb 0.00 in0.0 mm 0.00 in0.0 mm 0.00 in0.0 mm
02:56 AM 69.4°F20.8°C 66.7°F19.3°C 91% Calm Calm 2.2 mph3.5 kmh 29.05 in983.7 mb 0.00 in0.0 mm 0.00 in0.0 mm 0.00 in0.0 mm
02:57 AM 69.4°F20.8°C 66.7°F19.3°C 91% Calm Calm -- 29.05 in983.7 mb 0.00 in0.0 mm 0.00 in0.0 mm 0.00 in0.0 mm
02:58 AM 69.4°F20.8°C 66.7°F19.3°C 91% Calm Calm -- 29.05 in983.7 mb 0.00 in0.0 mm 0.00 in0.0 mm 0.00 in0.0 mm
02:59 AM 69.4°F20.8°C 66.7°F19.3°C 91% Calm Calm -- 29.05 in983.7 mb 0.00 in0.0 mm 0.00 in0.0 mm 0.00 in0.0 mm
03:00 AM 69.4°F20.8°C 66.7°F19.3°C 91% Calm Calm -- 29.05 in983.7 mb 0.00 in0.0 mm 0.00 in0.0 mm 0.00 in0.0 mm
03:01 AM 69.3°F20.7°C 66.6°F19.2°C 91% Calm Calm -- 29.05 in983.7 mb 0.00 in0.0 mm 0.00 in0.0 mm 0.00 in0.0 mm
03:02 AM 69.3°F20.7°C 66.6°F19.2°C 91% Calm Calm -- 29.05 in983.7 mb 0.00 in0.0 mm 0.00 in0.0 mm 0.00 in0.0 mm
03:03 AM 69.3°F20.7°C 66.6°F19.2°C 91% Calm Calm -- 29.05 in983.7 mb 0.00 in0.0 mm 0.00 in0.0 mm 0.00 in0.0 mm
03:04 AM 69.3°F20.7°C 66.6°F19.2°C 91% Calm Calm -- 29.05 in983.7 mb 0.00 in0.0 mm 0.00 in0.0 mm 0.00 in0.0 mm
03:05 AM 69.3°F20.7°C 66.6°F19.2°C 91% Calm Calm -- 29.05 in983.7 mb 0.00 in0.0 mm 0.00 in0.0 mm 0.00 in0.0 mm
03:06 AM 69.3°F20.7°C 66.6°F19.2°C 91% Calm Calm -- 29.05 in983.7 mb 0.00 in0.0 mm 0.00 in0.0 mm 0.00 in0.0 mm
03:07 AM 69.3°F20.7°C 66.6°F19.2°C 91% Calm Calm -- 29.05 in983.7 mb 0.00 in0.0 mm 0.00 in0.0 mm 0.00 in0.0 mm
03:08 AM 69.3°F20.7°C 66.6°F19.2°C 91% Calm Calm -- 29.05 in983.7 mb 0.00 in0.0 mm 0.00 in0.0 mm 0.00 in0.0 mm
03:09 AM 69.3°F20.7°C 66.6°F19.2°C 91% Calm Calm -- 29.05 in983.7 mb 0.00 in0.0 mm 0.00 in0.0 mm 0.00 in0.0 mm
03:10 AM 69.3°F20.7°C 66.6°F19.2°C 91% Calm Calm -- 29.05 in983.7 mb 0.00 in0.0 mm 0.00 in0.0 mm 0.00 in0.0 mm
03:11 AM 69.3°F20.7°C 66.6°F19.2°C 91% Calm Calm -- 29.05 in983.7 mb 0.00 in0.0 mm 0.00 in0.0 mm 0.00 in0.0 mm
03:12 AM 69.3°F20.7°C 66.9°F19.4°C 92% Calm Calm -- 29.05 in983.7 mb 0.00 in0.0 mm 0.00 in0.0 mm 0.00 in0.0 mm
03:13 AM 69.1°F20.6°C 66.7°F19.3°C 92% Calm Calm -- 29.05 in983.7 mb 0.00 in0.0 mm 0.00 in0.0 mm 0.00 in0.0 mm
03:14 AM 69.1°F20.6°C 66.7°F19.3°C 92% Calm Calm -- 29.05 in983.7 mb 0.00 in0.0 mm 0.00 in0.0 mm 0.00 in0.0 mm
03:15 AM 69.1°F20.6°C 66.7°F19.3°C 92% Calm Calm -- 29.05 in983.7 mb 0.00 in0.0 mm 0.00 in0.0 mm 0.00 in0.0 mm
03:16 AM 69.1°F20.6°C 66.7°F19.3°C 92% Calm Calm -- 29.05 in983.7 mb 0.00 in0.0 mm 0.00 in0.0 mm 0.00 in0.0 mm
03:17 AM 69.1°F20.6°C 66.7°F19.3°C 92% Calm Calm -- 29.05 in983.7 mb 0.00 in0.0 mm 0.00 in0.0 mm 0.00 in0.0 mm
03:18 AM 69.1°F20.6°C 66.7°F19.3°C 92% Calm Calm -- 29.05 in983.7 mb 0.00 in0.0 mm 0.00 in0.0 mm 0.00 in0.0 mm
03:19 AM 69.1°F20.6°C 66.7°F19.3°C 92% Calm Calm -- 29.05 in983.7 mb 0.00 in0.0 mm 0.00 in0.0 mm 0.00 in0.0 mm
03:20 AM 69.1°F20.6°C 66.7°F19.3°C 92% Calm Calm -- 29.05 in983.7 mb 0.00 in0.0 mm 0.00 in0.0 mm 0.00 in0.0 mm
03:21 AM 69.1°F20.6°C 66.7°F19.3°C 92% Calm Calm -- 29.05 in983.7 mb 0.00 in0.0 mm 0.00 in0.0 mm 0.00 in0.0 mm
03:22 AM 69.1°F20.6°C 66.7°F19.3°C 92% Calm Calm -- 29.05 in983.7 mb 0.00 in0.0 mm 0.00 in0.0 mm 0.00 in0.0 mm
03:23 AM 69.1°F20.6°C 66.7°F19.3°C 92% Calm Calm -- 29.05 in983.7 mb 0.00 in0.0 mm 0.00 in0.0 mm 0.00 in0.0 mm
03:24 AM 68.9°F20.5°C 66.5°F19.2°C 92% Calm Calm -- 29.05 in983.7 mb 0.00 in0.0 mm 0.00 in0.0 mm 0.00 in0.0 mm
03:25 AM 68.9°F20.5°C 66.5°F19.2°C 92% Calm Calm -- 29.05 in983.7 mb 0.00 in0.0 mm 0.00 in0.0 mm 0.00 in0.0 mm
03:26 AM 68.9°F20.5°C 66.5°F19.2°C 92% Calm Calm -- 29.05 in983.7 mb 0.00 in0.0 mm 0.00 in0.0 mm 0.00 in0.0 mm
03:27 AM 68.9°F20.5°C 66.5°F19.2°C 92% Calm Calm -- 29.05 in983.7 mb 0.00 in0.0 mm 0.00 in0.0 mm 0.00 in0.0 mm
03:28 AM 68.9°F20.5°C 66.5°F19.2°C 92% Calm Calm -- 29.05 in983.7 mb 0.00 in0.0 mm 0.00 in0.0 mm 0.00 in0.0 mm
03:29 AM 68.9°F20.5°C 66.5°F19.2°C 92% Calm Calm -- 29.05 in983.7 mb 0.00 in0.0 mm 0.00 in0.0 mm 0.00 in0.0 mm
03:30 AM 68.9°F20.5°C 66.8°F19.3°C 93% Calm Calm -- 29.05 in983.7 mb 0.00 in0.0 mm 0.00 in0.0 mm 0.00 in0.0 mm
03:31 AM 68.9°F20.5°C 66.8°F19.3°C 93% Calm Calm -- 29.05 in983.7 mb 0.00 in0.0 mm 0.00 in0.0 mm 0.00 in0.0 mm
03:32 AM 68.7°F20.4°C 66.6°F19.2°C 93% Calm Calm -- 29.05 in983.7 mb 0.00 in0.0 mm 0.00 in0.0 mm 0.00 in0.0 mm
03:33 AM 68.7°F20.4°C 66.6°F19.2°C 93% Calm Calm -- 29.05 in983.7 mb 0.00 in0.0 mm 0.00 in0.0 mm 0.00 in0.0 mm
03:34 AM 68.7°F20.4°C 66.6°F19.2°C 93% Calm Calm -- 29.05 in983.7 mb 0.00 in0.0 mm 0.00 in0.0 mm 0.00 in0.0 mm
03:35 AM 68.7°F20.4°C 66.6°F19.2°C 93% Calm Calm -- 29.05 in983.7 mb 0.00 in0.0 mm 0.00 in0.0 mm 0.00 in0.0 mm
03:36 AM 68.7°F20.4°C 66.6°F19.2°C 93% Calm Calm -- 29.05 in983.7 mb 0.00 in0.0 mm 0.00 in0.0 mm 0.00 in0.0 mm
03:37 AM 68.7°F20.4°C 66.6°F19.2°C 93% Calm Calm -- 29.05 in983.7 mb 0.00 in0.0 mm 0.00 in0.0 mm 0.00 in0.0 mm
03:38 AM 68.7°F20.4°C 66.6°F19.2°C 93% Calm Calm -- 29.05 in983.7 mb 0.00 in0.0 mm 0.00 in0.0 mm 0.00 in0.0 mm
03:39 AM 68.7°F20.4°C 66.6°F19.2°C 93% Calm Calm -- 29.06 in984.1 mb 0.00 in0.0 mm 0.00 in0.0 mm 0.00 in0.0 mm
03:40 AM 68.7°F20.4°C 66.6°F19.2°C 93% Calm Calm -- 29.06 in984.1 mb 0.00 in0.0 mm 0.00 in0.0 mm 0.00 in0.0 mm
03:41 AM 68.7°F20.4°C 66.6°F19.2°C 93% Calm Calm -- 29.06 in984.1 mb 0.00 in0.0 mm 0.00 in0.0 mm 0.00 in0.0 mm
03:42 AM 68.7°F20.4°C 66.6°F19.2°C 93% Calm Calm -- 29.06 in984.1 mb 0.00 in0.0 mm 0.00 in0.0 mm 0.00 in0.0 mm
03:43 AM 68.7°F20.4°C 66.6°F19.2°C 93% Calm Calm -- 29.06 in984.1 mb 0.00 in0.0 mm 0.00 in0.0 mm 0.00 in0.0 mm
03:44 AM 68.7°F20.4°C 66.6°F19.2°C 93% Calm Calm -- 29.06 in984.1 mb 0.00 in0.0 mm 0.00 in0.0 mm 0.00 in0.0 mm
03:45 AM 68.7°F20.4°C 66.6°F19.2°C 93% Calm Calm -- 29.06 in984.1 mb 0.00 in0.0 mm 0.00 in0.0 mm 0.00 in0.0 mm
03:46 AM 68.7°F20.4°C 66.6°F19.2°C 93% Calm Calm -- 29.06 in984.1 mb 0.00 in0.0 mm 0.00 in0.0 mm 0.00 in0.0 mm
03:47 AM 68.7°F20.4°C 66.6°F19.2°C 93% Calm Calm -- 29.06 in984.1 mb 0.00 in0.0 mm 0.00 in0.0 mm 0.00 in0.0 mm
03:48 AM 68.7°F20.4°C 66.6°F19.2°C 93% Calm Calm -- 29.06 in984.1 mb 0.00 in0.0 mm 0.00 in0.0 mm 0.00 in0.0 mm
03:49 AM 68.7°F20.4°C 66.6°F19.2°C 93% Calm Calm -- 29.06 in984.1 mb 0.00 in0.0 mm 0.00 in0.0 mm 0.00 in0.0 mm
03:50 AM 68.7°F20.4°C 66.6°F19.2°C 93% Calm Calm -- 29.06 in984.1 mb 0.00 in0.0 mm 0.00 in0.0 mm 0.00 in0.0 mm
03:51 AM 68.7°F20.4°C 66.6°F19.2°C 93% Calm Calm -- 29.06 in984.1 mb 0.00 in0.0 mm 0.00 in0.0 mm 0.00 in0.0 mm
03:52 AM 68.7°F20.4°C 66.6°F19.2°C 93% Calm Calm -- 29.06 in984.1 mb 0.00 in0.0 mm 0.00 in0.0 mm 0.00 in0.0 mm
03:53 AM 68.7°F20.4°C 66.6°F19.2°C 93% Calm Calm -- 29.06 in984.1 mb 0.00 in0.0 mm 0.00 in0.0 mm 0.00 in0.0 mm
03:54 AM 68.7°F20.4°C 66.6°F19.2°C 93% Calm Calm -- 29.06 in984.1 mb 0.00 in0.0 mm 0.00 in0.0 mm 0.00 in0.0 mm
03:55 AM 68.7°F20.4°C 66.6°F19.2°C 93% Calm Calm -- 29.06 in984.1 mb 0.00 in0.0 mm 0.00 in0.0 mm 0.00 in0.0 mm
03:56 AM 68.7°F20.4°C 66.6°F19.2°C 93% Calm Calm -- 29.06 in984.1 mb 0.00 in0.0 mm 0.00 in0.0 mm 0.00 in0.0 mm
03:57 AM 68.7°F20.4°C 66.6°F19.2°C 93% Calm Calm -- 29.06 in984.1 mb 0.00 in0.0 mm 0.00 in0.0 mm 0.00 in0.0 mm
03:58 AM 68.7°F20.4°C 66.6°F19.2°C 93% Calm Calm -- 29.06 in984.1 mb 0.00 in0.0 mm 0.00 in0.0 mm 0.00 in0.0 mm
03:59 AM 68.7°F20.4°C 66.6°F19.2°C 93% Calm Calm -- 29.06 in984.1 mb 0.00 in0.0 mm 0.00 in0.0 mm 0.00 in0.0 mm
04:00 AM 68.7°F20.4°C 66.6°F19.2°C 93% Calm Calm -- 29.06 in984.1 mb 0.00 in0.0 mm 0.00 in0.0 mm 0.00 in0.0 mm
04:01 AM 68.5°F20.3°C 66.4°F19.1°C 93% Calm Calm -- 29.06 in984.1 mb 0.00 in0.0 mm 0.00 in0.0 mm 0.00 in0.0 mm
04:02 AM 68.5°F20.3°C 66.4°F19.1°C 93% Calm Calm -- 29.06 in984.1 mb 0.00 in0.0 mm 0.00 in0.0 mm 0.00 in0.0 mm
04:03 AM 68.5°F20.3°C 66.4°F19.1°C 93% Calm Calm -- 29.06 in984.1 mb 0.00 in0.0 mm 0.00 in0.0 mm 0.00 in0.0 mm
04:04 AM 68.5°F20.3°C 66.4°F19.1°C 93% Calm Calm -- 29.06 in984.1 mb 0.00 in0.0 mm 0.00 in0.0 mm 0.00 in0.0 mm
04:05 AM 68.5°F20.3°C 66.4°F19.1°C 93% Calm Calm -- 29.06 in984.1 mb 0.00 in0.0 mm 0.00 in0.0 mm 0.00 in0.0 mm
04:06 AM 68.5°F20.3°C 66.4°F19.1°C 93% Calm Calm -- 29.06 in984.1 mb 0.00 in0.0 mm 0.00 in0.0 mm 0.00 in0.0 mm
04:07 AM 68.5°F20.3°C 66.4°F19.1°C 93% Calm Calm -- 29.06 in984.1 mb 0.00 in0.0 mm 0.00 in0.0 mm 0.00 in0.0 mm
04:08 AM 68.5°F20.3°C 66.4°F19.1°C 93% Calm Calm -- 29.06 in984.1 mb 0.00 in0.0 mm 0.00 in0.0 mm 0.00 in0.0 mm
04:09 AM 68.5°F20.3°C 66.4°F19.1°C 93% Calm Calm -- 29.06 in984.1 mb 0.00 in0.0 mm 0.00 in0.0 mm 0.00 in0.0 mm
04:10 AM 68.5°F20.3°C 66.4°F19.1°C 93% Calm Calm -- 29.06 in984.1 mb 0.00 in0.0 mm 0.00 in0.0 mm 0.00 in0.0 mm
04:11 AM 68.5°F20.3°C 66.4°F19.1°C 93% Calm Calm -- 29.06 in984.1 mb 0.00 in0.0 mm 0.00 in0.0 mm 0.00 in0.0 mm
04:12 AM 68.5°F20.3°C 66.4°F19.1°C 93% Calm Calm -- 29.06 in984.1 mb 0.00 in0.0 mm 0.00 in0.0 mm 0.00 in0.0 mm
04:13 AM 68.4°F20.2°C 66.3°F19.1°C 93% Calm Calm -- 29.06 in984.1 mb 0.00 in0.0 mm 0.00 in0.0 mm 0.00 in0.0 mm
04:14 AM 68.4°F20.2°C 66.3°F19.1°C 93% Calm Calm -- 29.06 in984.1 mb 0.00 in0.0 mm 0.00 in0.0 mm 0.00 in0.0 mm
04:15 AM 68.4°F20.2°C 66.3°F19.1°C 93% Calm Calm -- 29.06 in984.1 mb 0.00 in0.0 mm 0.00 in0.0 mm 0.00 in0.0 mm
04:16 AM 68.4°F20.2°C 66.3°F19.1°C 93% Calm Calm -- 29.06 in984.1 mb 0.00 in0.0 mm 0.00 in0.0 mm 0.00 in0.0 mm
04:17 AM 68.4°F20.2°C 66.3°F19.1°C 93% Calm Calm -- 29.06 in984.1 mb 0.00 in0.0 mm 0.00 in0.0 mm 0.00 in0.0 mm
04:18 AM 68.4°F20.2°C 66.3°F19.1°C 93% Calm Calm -- 29.06 in984.1 mb 0.00 in0.0 mm 0.00 in0.0 mm 0.00 in0.0 mm
04:19 AM 68.4°F20.2°C 66.3°F19.1°C 93% Calm Calm -- 29.06 in984.1 mb 0.00 in0.0 mm 0.00 in0.0 mm 0.00 in0.0 mm
04:20 AM 68.4°F20.2°C 66.3°F19.1°C 93% Calm Calm -- 29.06 in984.1 mb 0.00 in0.0 mm 0.00 in0.0 mm 0.00 in0.0 mm
04:21 AM 68.4°F20.2°C 66.3°F19.1°C 93% Calm Calm -- 29.06 in984.1 mb 0.00 in0.0 mm 0.00 in0.0 mm 0.00 in0.0 mm
04:22 AM 68.4°F20.2°C 66.3°F19.1°C 93% Calm Calm -- 29.06 in984.1 mb 0.00 in0.0 mm 0.00 in0.0 mm 0.00 in0.0 mm
04:23 AM 68.4°F20.2°C 66.3°F19.1°C 93% Calm Calm -- 29.06 in984.1 mb 0.00 in0.0 mm 0.00 in0.0 mm 0.00 in0.0 mm
04:24 AM 68.4°F20.2°C 66.3°F19.1°C 93% Calm Calm -- 29.06 in984.1 mb 0.00 in0.0 mm 0.00 in0.0 mm 0.00 in0.0 mm
04:25 AM 68.4°F20.2°C 66.3°F19.1°C 93% Calm Calm -- 29.06 in984.1 mb 0.00 in0.0 mm 0.00 in0.0 mm 0.00 in0.0 mm
04:26 AM 68.4°F20.2°C 66.3°F19.1°C 93% Calm Calm -- 29.06 in984.1 mb 0.00 in0.0 mm 0.00 in0.0 mm 0.00 in0.0 mm
04:27 AM 68.4°F20.2°C 66.3°F19.1°C 93% Calm Calm -- 29.06 in984.1 mb 0.00 in0.0 mm 0.00 in0.0 mm 0.00 in0.0 mm
04:28 AM 68.4°F20.2°C 66.3°F19.1°C 93% Calm Calm -- 29.07 in984.4 mb 0.01 in0.3 mm 0.60 in15.2 mm 0.01 in0.3 mm
04:29 AM 68.2°F20.1°C 66.1°F18.9°C 93% Calm Calm -- 29.07 in984.4 mb 0.01 in0.3 mm 0.00 in0.0 mm 0.01 in0.3 mm
04:30 AM 68.2°F20.1°C 66.1°F18.9°C 93% Calm Calm -- 29.07 in984.4 mb 0.01 in0.3 mm 0.00 in0.0 mm 0.01 in0.3 mm
04:31 AM 68.2°F20.1°C 66.1°F18.9°C 93% Calm Calm -- 29.07 in984.4 mb 0.01 in0.3 mm 0.00 in0.0 mm 0.01 in0.3 mm
04:32 AM 68.2°F20.1°C 66.1°F18.9°C 93% Calm Calm -- 29.07 in984.4 mb 0.01 in0.3 mm 0.00 in0.0 mm 0.01 in0.3 mm
04:33 AM 68.2°F20.1°C 66.1°F18.9°C 93% Calm Calm -- 29.07 in984.4 mb 0.01 in0.3 mm 0.00 in0.0 mm 0.01 in0.3 mm
04:34 AM 68.2°F20.1°C 66.1°F18.9°C 93% Calm Calm -- 29.07 in984.4 mb 0.01 in0.3 mm 0.00 in0.0 mm 0.01 in0.3 mm
04:35 AM 68.2°F20.1°C 66.1°F18.9°C 93% Calm Calm -- 29.07 in984.4 mb 0.01 in0.3 mm 0.00 in0.0 mm 0.01 in0.3 mm
04:36 AM 68.2°F20.1°C 66.1°F18.9°C 93% Calm Calm -- 29.07 in984.4 mb 0.01 in0.3 mm 0.00 in0.0 mm 0.01 in0.3 mm
04:37 AM 68.2°F20.1°C 66.1°F18.9°C 93% Calm Calm -- 29.07 in984.4 mb 0.01 in0.3 mm 0.00 in0.0 mm 0.01 in0.3 mm
04:38 AM 68.2°F20.1°C 66.1°F18.9°C 93% Calm Calm -- 29.07 in984.4 mb 0.01 in0.3 mm 0.00 in0.0 mm 0.01 in0.3 mm
04:39 AM 68.2°F20.1°C 66.1°F18.9°C 93% Calm Calm -- 29.07 in984.4 mb 0.01 in0.3 mm 0.00 in0.0 mm 0.01 in0.3 mm
04:40 AM 68.2°F20.1°C 66.1°F18.9°C 93% Calm Calm -- 29.07 in984.4 mb 0.01 in0.3 mm 0.00 in0.0 mm 0.01 in0.3 mm
04:41 AM 68.2°F20.1°C 66.1°F18.9°C 93% Calm Calm -- 29.07 in984.4 mb 0.01 in0.3 mm 0.00 in0.0 mm 0.01 in0.3 mm
04:42 AM 68.2°F20.1°C 66.1°F18.9°C 93% Calm Calm -- 29.07 in984.4 mb 0.01 in0.3 mm 0.00 in0.0 mm 0.01 in0.3 mm
04:43 AM 68.2°F20.1°C 66.1°F18.9°C 93% Calm Calm -- 29.07 in984.4 mb 0.01 in0.3 mm 0.00 in0.0 mm 0.01 in0.3 mm
04:44 AM 68.2°F20.1°C 66.1°F18.9°C 93% Calm Calm -- 29.07 in984.4 mb 0.01 in0.3 mm 0.00 in0.0 mm 0.01 in0.3 mm
04:45 AM 68.2°F20.1°C 66.1°F18.9°C 93% Calm Calm -- 29.07 in984.4 mb 0.01 in0.3 mm 0.00 in0.0 mm 0.01 in0.3 mm
04:46 AM 68.2°F20.1°C 66.1°F18.9°C 93% Calm Calm -- 29.07 in984.4 mb 0.01 in0.3 mm 0.00 in0.0 mm 0.01 in0.3 mm
04:47 AM 68.2°F20.1°C 66.1°F18.9°C 93% Calm Calm -- 29.07 in984.4 mb 0.01 in0.3 mm 0.00 in0.0 mm 0.01 in0.3 mm
04:48 AM 68.2°F20.1°C 66.4°F19.1°C 94% Calm Calm -- 29.07 in984.4 mb 0.01 in0.3 mm 0.00 in0.0 mm 0.01 in0.3 mm
04:49 AM 68.2°F20.1°C 66.4°F19.1°C 94% Calm Calm -- 29.07 in984.4 mb 0.01 in0.3 mm 0.00 in0.0 mm 0.01 in0.3 mm
04:50 AM 68.0°F20.0°C 66.2°F19.0°C 94% Calm Calm -- 29.07 in984.4 mb 0.01 in0.3 mm 0.00 in0.0 mm 0.01 in0.3 mm
04:51 AM 68.0°F20.0°C 66.2°F19.0°C 94% Calm Calm -- 29.07 in984.4 mb 0.01 in0.3 mm 0.00 in0.0 mm 0.01 in0.3 mm
04:52 AM 68.0°F20.0°C 66.2°F19.0°C 94% Calm Calm -- 29.07 in984.4 mb 0.01 in0.3 mm 0.00 in0.0 mm 0.01 in0.3 mm
04:53 AM 68.0°F20.0°C 66.2°F19.0°C 94% Calm Calm -- 29.07 in984.4 mb 0.01 in0.3 mm 0.00 in0.0 mm 0.01 in0.3 mm
04:54 AM 68.0°F20.0°C 66.2°F19.0°C 94% Calm Calm -- 29.07 in984.4 mb 0.01 in0.3 mm 0.00 in0.0 mm 0.01 in0.3 mm
04:55 AM 68.0°F20.0°C 66.2°F19.0°C 94% Calm Calm -- 29.07 in984.4 mb 0.01 in0.3 mm 0.00 in0.0 mm 0.01 in0.3 mm
04:56 AM 68.0°F20.0°C 66.2°F19.0°C 94% Calm Calm -- 29.07 in984.4 mb 0.01 in0.3 mm 0.00 in0.0 mm 0.01 in0.3 mm
04:57 AM 68.0°F20.0°C 66.2°F19.0°C 94% Calm Calm -- 29.07 in984.4 mb 0.01 in0.3 mm 0.00 in0.0 mm 0.01 in0.3 mm
04:58 AM 68.0°F20.0°C 66.2°F19.0°C 94% Calm Calm -- 29.07 in984.4 mb 0.01 in0.3 mm 0.00 in0.0 mm 0.01 in0.3 mm
04:59 AM 68.0°F20.0°C 66.2°F19.0°C 94% Calm Calm -- 29.07 in984.4 mb 0.01 in0.3 mm 0.00 in0.0 mm 0.01 in0.3 mm
05:00 AM 68.0°F20.0°C 66.2°F19.0°C 94% Calm Calm -- 29.07 in984.4 mb 0.01 in0.3 mm 0.00 in0.0 mm 0.01 in0.3 mm
05:01 AM 68.0°F20.0°C 66.2°F19.0°C 94% Calm Calm -- 29.07 in984.4 mb 0.01 in0.3 mm 0.00 in0.0 mm 0.01 in0.3 mm
05:02 AM 68.0°F20.0°C 66.2°F19.0°C 94% Calm Calm -- 29.07 in984.4 mb 0.02 in0.5 mm 0.60 in15.2 mm 0.02 in0.5 mm
05:03 AM 67.8°F19.9°C 66.0°F18.9°C 94% Calm Calm -- 29.07 in984.4 mb 0.02 in0.5 mm 0.00 in0.0 mm 0.02 in0.5 mm
05:04 AM 67.8°F19.9°C 66.0°F18.9°C 94% Calm Calm -- 29.07 in984.4 mb 0.02 in0.5 mm 0.00 in0.0 mm 0.02 in0.5 mm
05:05 AM 67.8°F19.9°C 66.0°F18.9°C 94% Calm Calm -- 29.07 in984.4 mb 0.02 in0.5 mm 0.00 in0.0 mm 0.02 in0.5 mm
05:06 AM 67.8°F19.9°C 66.0°F18.9°C 94% Calm Calm -- 29.07 in984.4 mb 0.02 in0.5 mm 0.00 in0.0 mm 0.02 in0.5 mm
05:07 AM 67.8°F19.9°C 66.0°F18.9°C 94% Calm Calm -- 29.07 in984.4 mb 0.02 in0.5 mm 0.00 in0.0 mm 0.02 in0.5 mm
05:08 AM 67.8°F19.9°C 66.0°F18.9°C 94% Calm Calm -- 29.07 in984.4 mb 0.02 in0.5 mm 0.00 in0.0 mm 0.02 in0.5 mm
05:09 AM 67.8°F19.9°C 66.0°F18.9°C 94% Calm Calm -- 29.07 in984.4 mb 0.02 in0.5 mm 0.00 in0.0 mm 0.02 in0.5 mm
05:10 AM 67.8°F19.9°C 66.0°F18.9°C 94% Calm Calm -- 29.07 in984.4 mb 0.02 in0.5 mm 0.00 in0.0 mm 0.02 in0.5 mm
05:11 AM 67.8°F19.9°C 66.0°F18.9°C 94% Calm Calm -- 29.07 in984.4 mb 0.02 in0.5 mm 0.00 in0.0 mm 0.02 in0.5 mm
05:12 AM 67.8°F19.9°C 66.0°F18.9°C 94% Calm Calm -- 29.07 in984.4 mb 0.02 in0.5 mm 0.00 in0.0 mm 0.02 in0.5 mm
05:13 AM 67.8°F19.9°C 66.0°F18.9°C 94% Calm Calm -- 29.07 in984.4 mb 0.03 in0.8 mm 0.60 in15.2 mm 0.03 in0.8 mm
05:14 AM 67.8°F19.9°C 66.0°F18.9°C 94% Calm Calm -- 29.07 in984.4 mb 0.03 in0.8 mm 0.00 in0.0 mm 0.03 in0.8 mm
05:15 AM 67.8°F19.9°C 66.0°F18.9°C 94% Calm Calm -- 29.07 in984.4 mb 0.03 in0.8 mm 0.00 in0.0 mm 0.03 in0.8 mm
05:16 AM 67.8°F19.9°C 66.0°F18.9°C 94% Calm Calm -- 29.07 in984.4 mb 0.03 in0.8 mm 0.00 in0.0 mm 0.03 in0.8 mm
05:17 AM 67.6°F19.8°C 65.8°F18.8°C 94% Calm Calm -- 29.07 in984.4 mb 0.03 in0.8 mm 0.00 in0.0 mm 0.03 in0.8 mm
05:18 AM 67.6°F19.8°C 65.8°F18.8°C 94% Calm Calm -- 29.07 in984.4 mb 0.03 in0.8 mm 0.00 in0.0 mm 0.03 in0.8 mm
05:19 AM 67.6°F19.8°C 65.8°F18.8°C 94% Calm Calm -- 29.07 in984.4 mb 0.03 in0.8 mm 0.00 in0.0 mm 0.03 in0.8 mm
05:20 AM 67.6°F19.8°C 65.8°F18.8°C 94% Calm Calm -- 29.07 in984.4 mb 0.03 in0.8 mm 0.00 in0.0 mm 0.03 in0.8 mm
05:21 AM 67.6°F19.8°C 65.8°F18.8°C 94% Calm Calm -- 29.07 in984.4 mb 0.03 in0.8 mm 0.00 in0.0 mm 0.03 in0.8 mm
05:22 AM 67.6°F19.8°C 65.8°F18.8°C 94% Calm Calm -- 29.07 in984.4 mb 0.03 in0.8 mm 0.00 in0.0 mm 0.03 in0.8 mm
05:23 AM 67.6°F19.8°C 65.8°F18.8°C 94% Calm Calm -- 29.07 in984.4 mb 0.03 in0.8 mm 0.00 in0.0 mm 0.03 in0.8 mm
05:24 AM 67.6°F19.8°C 65.8°F18.8°C 94% Calm Calm -- 29.07 in984.4 mb 0.03 in0.8 mm 0.00 in0.0 mm 0.03 in0.8 mm
05:25 AM 67.6°F19.8°C 65.8°F18.8°C 94% Calm Calm -- 29.07 in984.4 mb 0.03 in0.8 mm 0.00 in0.0 mm 0.03 in0.8 mm
05:26 AM 67.6°F19.8°C 65.8°F18.8°C 94% Calm Calm -- 29.07 in984.4 mb 0.03 in0.8 mm 0.00 in0.0 mm 0.03 in0.8 mm
05:27 AM 67.6°F19.8°C 65.8°F18.8°C 94% Calm Calm -- 29.07 in984.4 mb 0.03 in0.8 mm 0.00 in0.0 mm 0.03 in0.8 mm
05:28 AM 67.6°F19.8°C 65.8°F18.8°C 94% Calm Calm -- 29.07 in984.4 mb 0.03 in0.8 mm 0.00 in0.0 mm 0.03 in0.8 mm
05:29 AM 67.6°F19.8°C 65.8°F18.8°C 94% Calm Calm -- 29.07 in984.4 mb 0.03 in0.8 mm 0.00 in0.0 mm 0.04 in1.0 mm
05:30 AM 67.6°F19.8°C 65.8°F18.8°C 94% Calm Calm -- 29.07 in984.4 mb 0.03 in0.8 mm 0.00 in0.0 mm 0.04 in1.0 mm
05:31 AM 67.6°F19.8°C 65.8°F18.8°C 94% Calm Calm -- 29.07 in984.4 mb 0.03 in0.8 mm 0.00 in0.0 mm 0.04 in1.0 mm
05:32 AM 67.6°F19.8°C 65.8°F18.8°C 94% Calm Calm -- 29.07 in984.4 mb 0.03 in0.8 mm 0.00 in0.0 mm 0.04 in1.0 mm
05:33 AM 67.6°F19.8°C 65.8°F18.8°C 94% Calm Calm -- 29.07 in984.4 mb 0.03 in0.8 mm 0.00 in0.0 mm 0.04 in1.0 mm
05:34 AM 67.6°F19.8°C 65.8°F18.8°C 94% Calm Calm -- 29.07 in984.4 mb 0.03 in0.8 mm 0.00 in0.0 mm 0.04 in1.0 mm
05:35 AM 67.6°F19.8°C 65.8°F18.8°C 94% Calm Calm -- 29.07 in984.4 mb 0.03 in0.8 mm 0.00 in0.0 mm 0.04 in1.0 mm
05:36 AM 67.6°F19.8°C 65.8°F18.8°C 94% Calm Calm -- 29.07 in984.4 mb 0.03 in0.8 mm 0.00 in0.0 mm 0.04 in1.0 mm
05:37 AM 67.6°F19.8°C 65.8°F18.8°C 94% Calm Calm -- 29.07 in984.4 mb 0.03 in0.8 mm 0.00 in0.0 mm 0.04 in1.0 mm
05:38 AM 67.6°F19.8°C 65.8°F18.8°C 94% Calm Calm -- 29.07 in984.4 mb 0.03 in0.8 mm 0.00 in0.0 mm 0.04 in1.0 mm
05:39 AM 67.6°F19.8°C 65.8°F18.8°C 94% Calm Calm -- 29.07 in984.4 mb 0.03 in0.8 mm 0.00 in0.0 mm 0.04 in1.0 mm
05:40 AM 67.6°F19.8°C 65.8°F18.8°C 94% Calm Calm -- 29.07 in984.4 mb 0.03 in0.8 mm 0.00 in0.0 mm 0.04 in1.0 mm
05:41 AM 67.6°F19.8°C 65.8°F18.8°C 94% Calm Calm -- 29.07 in984.4 mb 0.03 in0.8 mm 0.00 in0.0 mm 0.04 in1.0 mm
05:42 AM 67.6°F19.8°C 65.8°F18.8°C 94% Calm Calm -- 29.07 in984.4 mb 0.03 in0.8 mm 0.00 in0.0 mm 0.04 in1.0 mm
05:43 AM 67.6°F19.8°C 65.8°F18.8°C 94% Calm Calm -- 29.07 in984.4 mb 0.03 in0.8 mm 0.00 in0.0 mm 0.04 in1.0 mm
05:44 AM 67.6°F19.8°C 65.8°F18.8°C 94% Calm Calm -- 29.07 in984.4 mb 0.03 in0.8 mm 0.00 in0.0 mm 0.04 in1.0 mm
05:45 AM 67.6°F19.8°C 65.8°F18.8°C 94% Calm Calm -- 29.07 in984.4 mb 0.03 in0.8 mm 0.00 in0.0 mm 0.04 in1.0 mm
05:46 AM 67.6°F19.8°C 65.8°F18.8°C 94% Calm Calm -- 29.07 in984.4 mb 0.03 in0.8 mm 0.00 in0.0 mm 0.04 in1.0 mm
05:47 AM 67.6°F19.8°C 65.8°F18.8°C 94% Calm Calm -- 29.07 in984.4 mb 0.04 in1.0 mm 0.60 in15.2 mm 0.05 in1.3 mm
05:48 AM 67.6°F19.8°C 65.8°F18.8°C 94% Calm Calm -- 29.07 in984.4 mb 0.04 in1.0 mm 0.00 in0.0 mm 0.05 in1.3 mm
05:49 AM 67.6°F19.8°C 65.8°F18.8°C 94% Calm Calm -- 29.07 in984.4 mb 0.04 in1.0 mm 0.00 in0.0 mm 0.05 in1.3 mm
05:50 AM 67.6°F19.8°C 65.8°F18.8°C 94% Calm Calm -- 29.07 in984.4 mb 0.04 in1.0 mm 0.00 in0.0 mm 0.05 in1.3 mm
05:51 AM 67.6°F19.8°C 65.8°F18.8°C 94% Calm Calm -- 29.07 in984.4 mb 0.04 in1.0 mm 0.00 in0.0 mm 0.05 in1.3 mm
05:52 AM 67.6°F19.8°C 65.8°F18.8°C 94% Calm Calm -- 29.06 in984.1 mb 0.04 in1.0 mm 0.00 in0.0 mm 0.05 in1.3 mm
05:53 AM 67.6°F19.8°C 65.8°F18.8°C 94% Calm Calm -- 29.06 in984.1 mb 0.04 in1.0 mm 0.00 in0.0 mm 0.05 in1.3 mm
05:54 AM 67.6°F19.8°C 66.1°F18.9°C 95% Calm Calm -- 29.06 in984.1 mb 0.04 in1.0 mm 0.00 in0.0 mm 0.05 in1.3 mm
05:55 AM 67.6°F19.8°C 66.1°F18.9°C 95% Calm Calm -- 29.06 in984.1 mb 0.04 in1.0 mm 0.00 in0.0 mm 0.05 in1.3 mm
05:56 AM 67.6°F19.8°C 66.1°F18.9°C 95% Calm Calm -- 29.06 in984.1 mb 0.04 in1.0 mm 0.00 in0.0 mm 0.05 in1.3 mm
05:57 AM 67.6°F19.8°C 66.1°F18.9°C 95% Calm Calm -- 29.06 in984.1 mb 0.04 in1.0 mm 0.00 in0.0 mm 0.05 in1.3 mm
05:58 AM 67.6°F19.8°C 66.1°F18.9°C 95% Calm Calm -- 29.06 in984.1 mb 0.04 in1.0 mm 0.00 in0.0 mm 0.05 in1.3 mm
05:59 AM 67.6°F19.8°C 66.1°F18.9°C 95% Calm Calm -- 29.06 in984.1 mb 0.04 in1.0 mm 0.00 in0.0 mm 0.05 in1.3 mm
06:00 AM 67.6°F19.8°C 66.1°F18.9°C 95% Calm Calm -- 29.06 in984.1 mb 0.04 in1.0 mm 0.00 in0.0 mm 0.05 in1.3 mm
06:01 AM 67.6°F19.8°C 66.1°F18.9°C 95% Calm Calm -- 29.06 in984.1 mb 0.04 in1.0 mm 0.00 in0.0 mm 0.05 in1.3 mm
06:02 AM 67.6°F19.8°C 66.1°F18.9°C 95% Calm Calm -- 29.06 in984.1 mb 0.03 in0.8 mm 0.00 in0.0 mm 0.05 in1.3 mm
06:03 AM 67.6°F19.8°C 66.1°F18.9°C 95% Calm Calm -- 29.06 in984.1 mb 0.03 in0.8 mm 0.00 in0.0 mm 0.05 in1.3 mm
06:04 AM 67.6°F19.8°C 66.1°F18.9°C 95% Calm Calm -- 29.06 in984.1 mb 0.03 in0.8 mm 0.00 in0.0 mm 0.05 in1.3 mm
06:05 AM 67.6°F19.8°C 66.1°F18.9°C 95% Calm Calm -- 29.06 in984.1 mb 0.03 in0.8 mm 0.00 in0.0 mm 0.05 in1.3 mm
06:06 AM 67.6°F19.8°C 66.1°F18.9°C 95% Calm Calm -- 29.06 in984.1 mb 0.03 in0.8 mm 0.00 in0.0 mm 0.05 in1.3 mm
06:07 AM 67.6°F19.8°C 66.1°F18.9°C 95% Calm Calm -- 29.06 in984.1 mb 0.03 in0.8 mm 0.00 in0.0 mm 0.05 in1.3 mm
06:08 AM 67.6°F19.8°C 66.1°F18.9°C 95% Calm Calm -- 29.06 in984.1 mb 0.03 in0.8 mm 0.00 in0.0 mm 0.05 in1.3 mm
06:09 AM 67.6°F19.8°C 66.1°F18.9°C 95% Calm Calm -- 29.06 in984.1 mb 0.03 in0.8 mm 0.00 in0.0 mm 0.05 in1.3 mm
06:10 AM 67.6°F19.8°C 66.1°F18.9°C 95% Calm Calm -- 29.06 in984.1 mb 0.03 in0.8 mm 0.00 in0.0 mm 0.05 in1.3 mm
06:11 AM 67.6°F19.8°C 66.1°F18.9°C 95% Calm Calm -- 29.06 in984.1 mb 0.03 in0.8 mm 0.00 in0.0 mm 0.05 in1.3 mm
06:12 AM 67.6°F19.8°C 66.1°F18.9°C 95% Calm Calm -- 29.06 in984.1 mb 0.03 in0.8 mm 0.00 in0.0 mm 0.05 in1.3 mm
06:13 AM 67.6°F19.8°C 66.1°F18.9°C 95% Calm Calm -- 29.06 in984.1 mb 0.02 in0.5 mm 0.00 in0.0 mm 0.05 in1.3 mm
06:14 AM 67.6°F19.8°C 66.1°F18.9°C 95% Calm Calm -- 29.06 in984.1 mb 0.02 in0.5 mm 0.00 in0.0 mm 0.05 in1.3 mm
06:15 AM 67.6°F19.8°C 66.1°F18.9°C 95% Calm Calm -- 29.06 in984.1 mb 0.02 in0.5 mm 0.00 in0.0 mm 0.05 in1.3 mm
06:16 AM 67.6°F19.8°C 66.1°F18.9°C 95% Calm Calm -- 29.07 in984.4 mb 0.03 in0.8 mm 0.60 in15.2 mm 0.06 in1.5 mm
06:17 AM 67.6°F19.8°C 66.1°F18.9°C 95% Calm Calm -- 29.07 in984.4 mb 0.03 in0.8 mm 0.00 in0.0 mm 0.06 in1.5 mm
06:18 AM 67.6°F19.8°C 66.1°F18.9°C 95% Calm Calm -- 29.07 in984.4 mb 0.03 in0.8 mm 0.00 in0.0 mm 0.06 in1.5 mm
06:19 AM 67.6°F19.8°C 66.1°F18.9°C 95% Calm Calm -- 29.07 in984.4 mb 0.03 in0.8 mm 0.00 in0.0 mm 0.06 in1.5 mm
06:20 AM 67.6°F19.8°C 66.1°F18.9°C 95% Calm Calm -- 29.07 in984.4 mb 0.03 in0.8 mm 0.00 in0.0 mm 0.06 in1.5 mm
06:21 AM 67.6°F19.8°C 66.1°F18.9°C 95% Calm Calm -- 29.07 in984.4 mb 0.03 in0.8 mm 0.00 in0.0 mm 0.06 in1.5 mm
06:22 AM 67.6°F19.8°C 66.1°F18.9°C 95% Calm Calm -- 29.07 in984.4 mb 0.03 in0.8 mm 0.00 in0.0 mm 0.06 in1.5 mm
06:23 AM 67.6°F19.8°C 66.1°F18.9°C 95% Calm Calm -- 29.07 in984.4 mb 0.03 in0.8 mm 0.00 in0.0 mm 0.06 in1.5 mm
06:24 AM 67.6°F19.8°C 66.1°F18.9°C 95% Calm Calm -- 29.07 in984.4 mb 0.03 in0.8 mm 0.00 in0.0 mm 0.06 in1.5 mm
06:25 AM 67.6°F19.8°C 66.1°F18.9°C 95% Calm Calm -- 29.07 in984.4 mb 0.03 in0.8 mm 0.00 in0.0 mm 0.06 in1.5 mm
06:26 AM 67.6°F19.8°C 66.1°F18.9°C 95% Calm Calm -- 29.07 in984.4 mb 0.03 in0.8 mm 0.00 in0.0 mm 0.06 in1.5 mm
06:27 AM 67.6°F19.8°C 66.1°F18.9°C 95% Calm Calm -- 29.07 in984.4 mb 0.03 in0.8 mm 0.00 in0.0 mm 0.06 in1.5 mm
06:28 AM 67.6°F19.8°C 66.1°F18.9°C 95% Calm Calm -- 29.07 in984.4 mb 0.03 in0.8 mm 0.00 in0.0 mm 0.06 in1.5 mm
06:29 AM 67.6°F19.8°C 66.1°F18.9°C 95% Calm Calm -- 29.07 in984.4 mb 0.03 in0.8 mm 0.00 in0.0 mm 0.06 in1.5 mm
06:30 AM 67.6°F19.8°C 66.1°F18.9°C 95% Calm Calm -- 29.07 in984.4 mb 0.02 in0.5 mm 0.00 in0.0 mm 0.06 in1.5 mm
06:31 AM 67.6°F19.8°C 66.1°F18.9°C 95% Calm Calm -- 29.07 in984.4 mb 0.02 in0.5 mm 0.00 in0.0 mm 0.06 in1.5 mm
06:32 AM 67.6°F19.8°C 66.1°F18.9°C 95% Calm Calm -- 29.07 in984.4 mb 0.02 in0.5 mm 0.00 in0.0 mm 0.06 in1.5 mm
06:33 AM 67.6°F19.8°C 66.1°F18.9°C 95% Calm Calm -- 29.07 in984.4 mb 0.02 in0.5 mm 0.00 in0.0 mm 0.06 in1.5 mm
06:34 AM 67.6°F19.8°C 66.1°F18.9°C 95% Calm Calm -- 29.07 in984.4 mb 0.03 in0.8 mm 0.60 in15.2 mm 0.07 in1.8 mm
06:35 AM 67.6°F19.8°C 66.1°F18.9°C 95% Calm Calm -- 29.07 in984.4 mb 0.03 in0.8 mm 0.00 in0.0 mm 0.07 in1.8 mm
06:36 AM 67.6°F19.8°C 66.1°F18.9°C 95% Calm Calm -- 29.07 in984.4 mb 0.03 in0.8 mm 0.00 in0.0 mm 0.07 in1.8 mm
06:37 AM 67.6°F19.8°C 66.1°F18.9°C 95% Calm Calm -- 29.07 in984.4 mb 0.03 in0.8 mm 0.00 in0.0 mm 0.07 in1.8 mm
06:38 AM 67.6°F19.8°C 66.1°F18.9°C 95% Calm Calm -- 29.07 in984.4 mb 0.03 in0.8 mm 0.00 in0.0 mm 0.07 in1.8 mm
06:39 AM 67.6°F19.8°C 66.1°F18.9°C 95% Calm Calm -- 29.07 in984.4 mb 0.03 in0.8 mm 0.00 in0.0 mm 0.07 in1.8 mm
06:40 AM 67.6°F19.8°C 66.1°F18.9°C 95% Calm Calm -- 29.07 in984.4 mb 0.03 in0.8 mm 0.00 in0.0 mm 0.07 in1.8 mm
06:41 AM 67.6°F19.8°C 66.1°F18.9°C 95% Calm Calm -- 29.07 in984.4 mb 0.03 in0.8 mm 0.00 in0.0 mm 0.07 in1.8 mm
06:42 AM 67.6°F19.8°C 66.1°F18.9°C 95% Calm Calm -- 29.07 in984.4 mb 0.03 in0.8 mm 0.00 in0.0 mm 0.07 in1.8 mm
06:43 AM 67.6°F19.8°C 66.1°F18.9°C 95% Calm Calm -- 29.07 in984.4 mb 0.03 in0.8 mm 0.00 in0.0 mm 0.07 in1.8 mm
06:44 AM 67.6°F19.8°C 66.1°F18.9°C 95% Calm Calm -- 29.07 in984.4 mb 0.03 in0.8 mm 0.00 in0.0 mm 0.07 in1.8 mm
06:45 AM 67.6°F19.8°C 66.1°F18.9°C 95% Calm Calm -- 29.07 in984.4 mb 0.03 in0.8 mm 0.00 in0.0 mm 0.07 in1.8 mm
06:46 AM 67.6°F19.8°C 66.1°F18.9°C 95% Calm Calm -- 29.07 in984.4 mb 0.03 in0.8 mm 0.00 in0.0 mm 0.07 in1.8 mm
06:47 AM 67.6°F19.8°C 66.1°F18.9°C 95% Calm Calm -- 29.07 in984.4 mb 0.02 in0.5 mm 0.00 in0.0 mm 0.07 in1.8 mm
06:48 AM 67.6°F19.8°C 66.1°F18.9°C 95% Calm Calm -- 29.07 in984.4 mb 0.02 in0.5 mm 0.00 in0.0 mm 0.07 in1.8 mm
06:49 AM 67.6°F19.8°C 66.1°F18.9°C 95% Calm Calm -- 29.07 in984.4 mb 0.02 in0.5 mm 0.00 in0.0 mm 0.07 in1.8 mm
06:50 AM 67.6°F19.8°C 66.4°F19.1°C 96% Calm Calm -- 29.07 in984.4 mb 0.02 in0.5 mm 0.00 in0.0 mm 0.07 in1.8 mm
06:51 AM 67.6°F19.8°C 66.4°F19.1°C 96% Calm Calm -- 29.07 in984.4 mb 0.02 in0.5 mm 0.00 in0.0 mm 0.07 in1.8 mm
06:52 AM 67.6°F19.8°C 66.4°F19.1°C 96% Calm Calm -- 29.07 in984.4 mb 0.02 in0.5 mm 0.00 in0.0 mm 0.07 in1.8 mm
06:53 AM 67.6°F19.8°C 66.4°F19.1°C 96% Calm Calm -- 29.07 in984.4 mb 0.02 in0.5 mm 0.00 in0.0 mm 0.07 in1.8 mm
06:54 AM 67.6°F19.8°C 66.4°F19.1°C 96% Calm Calm -- 29.07 in984.4 mb 0.02 in0.5 mm 0.00 in0.0 mm 0.07 in1.8 mm
06:55 AM 67.6°F19.8°C 66.4°F19.1°C 96% Calm Calm -- 29.07 in984.4 mb 0.02 in0.5 mm 0.00 in0.0 mm 0.07 in1.8 mm
06:56 AM 67.6°F19.8°C 66.4°F19.1°C 96% Calm Calm -- 29.07 in984.4 mb 0.02 in0.5 mm 0.00 in0.0 mm 0.07 in1.8 mm
06:57 AM 67.6°F19.8°C 66.4°F19.1°C 96% Calm Calm -- 29.07 in984.4 mb 0.02 in0.5 mm 0.00 in0.0 mm 0.07 in1.8 mm
06:58 AM 67.6°F19.8°C 66.4°F19.1°C 96% Calm Calm -- 29.07 in984.4 mb 0.02 in0.5 mm 0.00 in0.0 mm 0.07 in1.8 mm
06:59 AM 67.6°F19.8°C 66.4°F19.1°C 96% Calm Calm -- 29.07 in984.4 mb 0.02 in0.5 mm 0.00 in0.0 mm 0.07 in1.8 mm
07:00 AM 67.6°F19.8°C 66.4°F19.1°C 96% Calm Calm -- 29.07 in984.4 mb 0.02 in0.5 mm 0.00 in0.0 mm 0.07 in1.8 mm
07:01 AM 67.6°F19.8°C 66.4°F19.1°C 96% Calm Calm -- 29.07 in984.4 mb 0.02 in0.5 mm 0.00 in0.0 mm 0.07 in1.8 mm
07:02 AM 67.6°F19.8°C 66.4°F19.1°C 96% Calm Calm -- 29.07 in984.4 mb 0.02 in0.5 mm 0.00 in0.0 mm 0.07 in1.8 mm
07:03 AM 67.6°F19.8°C 66.4°F19.1°C 96% Calm Calm -- 29.08 in984.8 mb 0.02 in0.5 mm 0.00 in0.0 mm 0.07 in1.8 mm
07:04 AM 67.6°F19.8°C 66.4°F19.1°C 96% Calm Calm -- 29.08 in984.8 mb 0.02 in0.5 mm 0.00 in0.0 mm 0.07 in1.8 mm
07:05 AM 67.6°F19.8°C 66.4°F19.1°C 96% Calm Calm -- 29.08 in984.8 mb 0.02 in0.5 mm 0.00 in0.0 mm 0.07 in1.8 mm
07:06 AM 67.6°F19.8°C 66.4°F19.1°C 96% Calm Calm -- 29.08 in984.8 mb 0.02 in0.5 mm 0.00 in0.0 mm 0.07 in1.8 mm
07:07 AM 67.8°F19.9°C 66.6°F19.2°C 96% Calm Calm -- 29.08 in984.8 mb 0.02 in0.5 mm 0.00 in0.0 mm 0.07 in1.8 mm
07:08 AM 67.8°F19.9°C 66.6°F19.2°C 96% Calm Calm -- 29.08 in984.8 mb 0.02 in0.5 mm 0.00 in0.0 mm 0.07 in1.8 mm
07:09 AM 67.8°F19.9°C 66.6°F19.2°C 96% Calm Calm -- 29.08 in984.8 mb 0.02 in0.5 mm 0.00 in0.0 mm 0.07 in1.8 mm
07:10 AM 67.8°F19.9°C 66.6°F19.2°C 96% Calm Calm -- 29.08 in984.8 mb 0.02 in0.5 mm 0.00 in0.0 mm 0.07 in1.8 mm
07:11 AM 67.8°F19.9°C 66.6°F19.2°C 96% Calm Calm -- 29.08 in984.8 mb 0.02 in0.5 mm 0.00 in0.0 mm 0.07 in1.8 mm
07:12 AM 67.8°F19.9°C 66.6°F19.2°C 96% Calm Calm -- 29.08 in984.8 mb 0.02 in0.5 mm 0.00 in0.0 mm 0.07 in1.8 mm
07:13 AM 67.8°F19.9°C 66.6°F19.2°C 96% Calm Calm -- 29.08 in984.8 mb 0.02 in0.5 mm 0.00 in0.0 mm 0.07 in1.8 mm
07:14 AM 67.8°F19.9°C 66.6°F19.2°C 96% Calm Calm -- 29.08 in984.8 mb 0.02 in0.5 mm 0.00 in0.0 mm 0.07 in1.8 mm
07:15 AM 67.8°F19.9°C 66.6°F19.2°C 96% Calm Calm -- 29.08 in984.8 mb 0.02 in0.5 mm 0.00 in0.0 mm 0.07 in1.8 mm
07:16 AM 67.8°F19.9°C 66.6°F19.2°C 96% Calm Calm -- 29.08 in984.8 mb 0.01 in0.3 mm 0.00 in0.0 mm 0.07 in1.8 mm
07:17 AM 67.8°F19.9°C 66.6°F19.2°C 96% Calm Calm -- 29.08 in984.8 mb 0.01 in0.3 mm 0.00 in0.0 mm 0.07 in1.8 mm
07:18 AM 67.8°F19.9°C 66.6°F19.2°C 96% Calm Calm -- 29.08 in984.8 mb 0.01 in0.3 mm 0.00 in0.0 mm 0.07 in1.8 mm
07:19 AM 67.8°F19.9°C 66.6°F19.2°C 96% Calm Calm -- 29.08 in984.8 mb 0.01 in0.3 mm 0.00 in0.0 mm 0.07 in1.8 mm
07:20 AM 67.8°F19.9°C 66.6°F19.2°C 96% Calm Calm -- 29.08 in984.8 mb 0.01 in0.3 mm 0.00 in0.0 mm 0.07 in1.8 mm
07:21 AM 67.8°F19.9°C 66.6°F19.2°C 96% Calm Calm -- 29.08 in984.8 mb 0.01 in0.3 mm 0.00 in0.0 mm 0.07 in1.8 mm
07:22 AM 67.8°F19.9°C 66.6°F19.2°C 96% Calm Calm -- 29.08 in984.8 mb 0.01 in0.3 mm 0.00 in0.0 mm 0.07 in1.8 mm
07:23 AM 67.8°F19.9°C 66.6°F19.2°C 96% Calm Calm -- 29.08 in984.8 mb 0.01 in0.3 mm 0.00 in0.0 mm 0.07 in1.8 mm
07:24 AM 67.8°F19.9°C 66.6°F19.2°C 96% Calm Calm -- 29.08 in984.8 mb 0.01 in0.3 mm 0.00 in0.0 mm 0.07 in1.8 mm
07:25 AM 67.8°F19.9°C 66.6°F19.2°C 96% Calm Calm -- 29.08 in984.8 mb 0.01 in0.3 mm 0.00 in0.0 mm 0.07 in1.8 mm
07:26 AM 67.8°F19.9°C 66.6°F19.2°C 96% Calm Calm -- 29.08 in984.8 mb 0.01 in0.3 mm 0.00 in0.0 mm 0.07 in1.8 mm
07:27 AM 67.8°F19.9°C 66.6°F19.2°C 96% Calm Calm -- 29.08 in984.8 mb 0.01 in0.3 mm 0.00 in0.0 mm 0.07 in1.8 mm
07:28 AM 67.8°F19.9°C 66.6°F19.2°C 96% Calm Calm -- 29.08 in984.8 mb 0.01 in0.3 mm 0.00 in0.0 mm 0.07 in1.8 mm
07:29 AM 67.8°F19.9°C 66.6°F19.2°C 96% Calm Calm -- 29.08 in984.8 mb 0.01 in0.3 mm 0.00 in0.0 mm 0.07 in1.8 mm
07:30 AM 67.8°F19.9°C 66.6°F19.2°C 96% Calm Calm -- 29.08 in984.8 mb 0.01 in0.3 mm 0.00 in0.0 mm 0.07 in1.8 mm
07:31 AM 67.8°F19.9°C 66.6°F19.2°C 96% Calm Calm -- 29.08 in984.8 mb 0.01 in0.3 mm 0.00 in0.0 mm 0.07 in1.8 mm
07:32 AM 67.8°F19.9°C 66.6°F19.2°C 96% Calm Calm -- 29.08 in984.8 mb 0.01 in0.3 mm 0.00 in0.0 mm 0.07 in1.8 mm
07:33 AM 67.8°F19.9°C 66.6°F19.2°C 96% Calm Calm -- 29.08 in984.8 mb 0.01 in0.3 mm 0.00 in0.0 mm 0.07 in1.8 mm
07:34 AM 67.8°F19.9°C 66.6°F19.2°C 96% Calm Calm -- 29.08 in984.8 mb 0.00 in0.0 mm 0.00 in0.0 mm 0.07 in1.8 mm
07:35 AM 67.8°F19.9°C 66.6°F19.2°C 96% Calm Calm -- 29.08 in984.8 mb 0.00 in0.0 mm 0.00 in0.0 mm 0.07 in1.8 mm
07:36 AM 67.8°F19.9°C 66.6°F19.2°C 96% Calm Calm -- 29.08 in984.8 mb 0.00 in0.0 mm 0.00 in0.0 mm 0.07 in1.8 mm
07:37 AM 67.8°F19.9°C 66.6°F19.2°C 96% Calm Calm -- 29.08 in984.8 mb 0.00 in0.0 mm 0.00 in0.0 mm 0.07 in1.8 mm
07:38 AM 67.8°F19.9°C 66.6°F19.2°C 96% Calm Calm -- 29.08 in984.8 mb 0.00 in0.0 mm 0.00 in0.0 mm 0.07 in1.8 mm
07:39 AM 67.8°F19.9°C 66.6°F19.2°C 96% Calm Calm -- 29.08 in984.8 mb 0.00 in0.0 mm 0.00 in0.0 mm 0.07 in1.8 mm
07:40 AM 67.8°F19.9°C 66.6°F19.2°C 96% Calm Calm -- 29.08 in984.8 mb 0.00 in0.0 mm 0.00 in0.0 mm 0.07 in1.8 mm
07:41 AM 67.8°F19.9°C 66.6°F19.2°C 96% Calm Calm -- 29.08 in984.8 mb 0.00 in0.0 mm 0.00 in0.0 mm 0.07 in1.8 mm
07:42 AM 67.8°F19.9°C 66.6°F19.2°C 96% Calm Calm -- 29.08 in984.8 mb 0.00 in0.0 mm 0.00 in0.0 mm 0.07 in1.8 mm
07:43 AM 67.8°F19.9°C 66.6°F19.2°C 96% Calm Calm -- 29.08 in984.8 mb 0.00 in0.0 mm 0.00 in0.0 mm 0.07 in1.8 mm
07:44 AM 67.8°F19.9°C 66.6°F19.2°C 96% Calm Calm -- 29.08 in984.8 mb 0.00 in0.0 mm 0.00 in0.0 mm 0.07 in1.8 mm
07:45 AM 67.8°F19.9°C 66.6°F19.2°C 96% Calm Calm -- 29.08 in984.8 mb 0.00 in0.0 mm 0.00 in0.0 mm 0.07 in1.8 mm
07:46 AM 67.8°F19.9°C 66.6°F19.2°C 96% Calm Calm -- 29.08 in984.8 mb 0.00 in0.0 mm 0.00 in0.0 mm 0.07 in1.8 mm
07:47 AM 67.8°F19.9°C 66.6°F19.2°C 96% Calm Calm -- 29.08 in984.8 mb 0.01 in0.3 mm 0.60 in15.2 mm 0.08 in2.0 mm
07:48 AM 67.8°F19.9°C 66.6°F19.2°C 96% Calm Calm -- 29.08 in984.8 mb 0.01 in0.3 mm 0.00 in0.0 mm 0.08 in2.0 mm
07:49 AM 67.8°F19.9°C 66.6°F19.2°C 96% Calm Calm -- 29.08 in984.8 mb 0.01 in0.3 mm 0.00 in0.0 mm 0.08 in2.0 mm
07:50 AM 67.8°F19.9°C 66.6°F19.2°C 96% Calm Calm -- 29.08 in984.8 mb 0.01 in0.3 mm 0.00 in0.0 mm 0.08 in2.0 mm
07:51 AM 67.8°F19.9°C 66.6°F19.2°C 96% Calm Calm -- 29.08 in984.8 mb 0.01 in0.3 mm 0.00 in0.0 mm 0.08 in2.0 mm
07:52 AM 67.8°F19.9°C 66.6°F19.2°C 96% Calm Calm -- 29.08 in984.8 mb 0.01 in0.3 mm 0.00 in0.0 mm 0.08 in2.0 mm
07:53 AM 67.8°F19.9°C 66.6°F19.2°C 96% Calm Calm -- 29.08 in984.8 mb 0.01 in0.3 mm 0.00 in0.0 mm 0.08 in2.0 mm
07:54 AM 67.8°F19.9°C 66.6°F19.2°C 96% Calm Calm -- 29.08 in984.8 mb 0.01 in0.3 mm 0.00 in0.0 mm 0.08 in2.0 mm
07:55 AM 67.8°F19.9°C 66.6°F19.2°C 96% Calm Calm -- 29.08 in984.8 mb 0.01 in0.3 mm 0.00 in0.0 mm 0.08 in2.0 mm
07:56 AM 67.8°F19.9°C 66.6°F19.2°C 96% Calm Calm -- 29.08 in984.8 mb 0.01 in0.3 mm 0.00 in0.0 mm 0.08 in2.0 mm
07:57 AM 67.8°F19.9°C 66.6°F19.2°C 96% Calm Calm -- 29.08 in984.8 mb 0.01 in0.3 mm 0.00 in0.0 mm 0.08 in2.0 mm
07:58 AM 67.8°F19.9°C 66.6°F19.2°C 96% Calm Calm -- 29.08 in984.8 mb 0.01 in0.3 mm 0.00 in0.0 mm 0.08 in2.0 mm
07:59 AM 67.8°F19.9°C 66.6°F19.2°C 96% Calm Calm -- 29.08 in984.8 mb 0.01 in0.3 mm 0.00 in0.0 mm 0.08 in2.0 mm
08:00 AM 67.8°F19.9°C 66.6°F19.2°C 96% Calm Calm -- 29.08 in984.8 mb 0.01 in0.3 mm 0.00 in0.0 mm 0.08 in2.0 mm
08:01 AM 67.8°F19.9°C 66.6°F19.2°C 96% Calm Calm -- 29.08 in984.8 mb 0.01 in0.3 mm 0.00 in0.0 mm 0.08 in2.0 mm
08:02 AM 67.8°F19.9°C 66.6°F19.2°C 96% Calm Calm -- 29.08 in984.8 mb 0.01 in0.3 mm 0.00 in0.0 mm 0.08 in2.0 mm
08:03 AM 67.8°F19.9°C 66.6°F19.2°C 96% Calm Calm -- 29.08 in984.8 mb 0.01 in0.3 mm 0.00 in0.0 mm 0.08 in2.0 mm
08:04 AM 67.8°F19.9°C 66.6°F19.2°C 96% Calm Calm -- 29.08 in984.8 mb 0.01 in0.3 mm 0.00 in0.0 mm 0.08 in2.0 mm
08:05 AM 67.8°F19.9°C 66.6°F19.2°C 96% Calm Calm -- 29.08 in984.8 mb 0.01 in0.3 mm 0.00 in0.0 mm 0.08 in2.0 mm
08:06 AM 67.8°F19.9°C 66.6°F19.2°C 96% Calm Calm -- 29.08 in984.8 mb 0.01 in0.3 mm 0.00 in0.0 mm 0.08 in2.0 mm
08:07 AM 67.8°F19.9°C 66.6°F19.2°C 96% Calm Calm -- 29.08 in984.8 mb 0.01 in0.3 mm 0.00 in0.0 mm 0.08 in2.0 mm
08:08 AM 67.8°F19.9°C 66.6°F19.2°C 96% Calm Calm -- 29.08 in984.8 mb 0.01 in0.3 mm 0.00 in0.0 mm 0.08 in2.0 mm
08:09 AM 67.8°F19.9°C 66.6°F19.2°C 96% Calm Calm -- 29.08 in984.8 mb 0.01 in0.3 mm 0.00 in0.0 mm 0.08 in2.0 mm
08:10 AM 67.8°F19.9°C 66.6°F19.2°C 96% Calm Calm -- 29.08 in984.8 mb 0.01 in0.3 mm 0.00 in0.0 mm 0.08 in2.0 mm
08:11 AM 67.8°F19.9°C 66.6°F19.2°C 96% 1.7 mph S2.7 kmh S 1.7 mph2.7 kmh 29.08 in984.8 mb 0.01 in0.3 mm 0.00 in0.0 mm 0.08 in2.0 mm
08:12 AM 68.0°F20.0°C 66.8°F19.3°C 96% Calm Calm 2.7 mph4.3 kmh 29.08 in984.8 mb 0.02 in0.5 mm 0.60 in15.2 mm 0.09 in2.3 mm
08:13 AM 68.0°F20.0°C 66.8°F19.3°C 96% Calm Calm 2.7 mph4.3 kmh 29.08 in984.8 mb 0.02 in0.5 mm 0.00 in0.0 mm 0.09 in2.3 mm
08:14 AM 68.0°F20.0°C 66.8°F19.3°C 96% Calm Calm 2.7 mph4.3 kmh 29.08 in984.8 mb 0.02 in0.5 mm 0.00 in0.0 mm 0.09 in2.3 mm
08:15 AM 68.0°F20.0°C 66.8°F19.3°C 96% Calm Calm 2.7 mph4.3 kmh 29.08 in984.8 mb 0.02 in0.5 mm 0.00 in0.0 mm 0.09 in2.3 mm
08:16 AM 68.0°F20.0°C 66.8°F19.3°C 96% Calm Calm 2.7 mph4.3 kmh 29.08 in984.8 mb 0.02 in0.5 mm 0.00 in0.0 mm 0.09 in2.3 mm
08:17 AM 68.0°F20.0°C 66.8°F19.3°C 96% Calm Calm 2.7 mph4.3 kmh 29.08 in984.8 mb 0.02 in0.5 mm 0.00 in0.0 mm 0.09 in2.3 mm
08:18 AM 68.0°F20.0°C 66.8°F19.3°C 96% Calm Calm 2.7 mph4.3 kmh 29.08 in984.8 mb 0.02 in0.5 mm 0.00 in0.0 mm 0.09 in2.3 mm
08:19 AM 68.0°F20.0°C 66.8°F19.3°C 96% Calm Calm 2.7 mph4.3 kmh 29.08 in984.8 mb 0.02 in0.5 mm 0.00 in0.0 mm 0.09 in2.3 mm
08:20 AM 68.0°F20.0°C 66.8°F19.3°C 96% Calm Calm 2.7 mph4.3 kmh 29.08 in984.8 mb 0.02 in0.5 mm 0.00 in0.0 mm 0.09 in2.3 mm
08:21 AM 68.0°F20.0°C 66.8°F19.3°C 96% Calm Calm 2.7 mph4.3 kmh 29.08 in984.8 mb 0.02 in0.5 mm 0.00 in0.0 mm 0.09 in2.3 mm
08:22 AM 68.0°F20.0°C 66.8°F19.3°C 96% Calm Calm 1.7 mph2.7 kmh 29.08 in984.8 mb 0.02 in0.5 mm 0.00 in0.0 mm 0.09 in2.3 mm
08:23 AM 68.0°F20.0°C 66.8°F19.3°C 96% Calm Calm 1.7 mph2.7 kmh 29.08 in984.8 mb 0.02 in0.5 mm 0.00 in0.0 mm 0.09 in2.3 mm
08:24 AM 68.0°F20.0°C 66.8°F19.3°C 96% Calm Calm 1.1 mph1.8 kmh 29.08 in984.8 mb 0.02 in0.5 mm 0.00 in0.0 mm 0.09 in2.3 mm
08:25 AM 68.0°F20.0°C 66.8°F19.3°C 96% Calm Calm -- 29.08 in984.8 mb 0.02 in0.5 mm 0.00 in0.0 mm 0.09 in2.3 mm
08:26 AM 68.0°F20.0°C 66.8°F19.3°C 96% Calm Calm -- 29.08 in984.8 mb 0.02 in0.5 mm 0.00 in0.0 mm 0.09 in2.3 mm
08:27 AM 68.0°F20.0°C 66.8°F19.3°C 96% Calm Calm -- 29.08 in984.8 mb 0.02 in0.5 mm 0.00 in0.0 mm 0.09 in2.3 mm
08:28 AM 68.0°F20.0°C 66.8°F19.3°C 96% Calm Calm -- 29.09 in985.1 mb 0.02 in0.5 mm 0.00 in0.0 mm 0.09 in2.3 mm
08:29 AM 68.0°F20.0°C 66.8°F19.3°C 96% Calm Calm -- 29.09 in985.1 mb 0.02 in0.5 mm 0.00 in0.0 mm 0.09 in2.3 mm
08:30 AM 68.0°F20.0°C 66.8°F19.3°C 96% Calm Calm -- 29.09 in985.1 mb 0.02 in0.5 mm 0.00 in0.0 mm 0.09 in2.3 mm
08:31 AM 68.0°F20.0°C 66.8°F19.3°C 96% Calm Calm -- 29.09 in985.1 mb 0.02 in0.5 mm 0.00 in0.0 mm 0.09 in2.3 mm
08:32 AM 68.0°F20.0°C 66.8°F19.3°C 96% Calm Calm -- 29.09 in985.1 mb 0.02 in0.5 mm 0.00 in0.0 mm 0.09 in2.3 mm
08:33 AM 68.0°F20.0°C 66.8°F19.3°C 96% Calm Calm -- 29.09 in985.1 mb 0.02 in0.5 mm 0.00 in0.0 mm 0.09 in2.3 mm
08:34 AM 68.0°F20.0°C 66.8°F19.3°C 96% Calm Calm -- 29.09 in985.1 mb 0.02 in0.5 mm 0.00 in0.0 mm 0.09 in2.3 mm
08:35 AM 68.0°F20.0°C 66.8°F19.3°C 96% Calm Calm -- 29.09 in985.1 mb 0.02 in0.5 mm 0.00 in0.0 mm 0.09 in2.3 mm
08:36 AM 68.0°F20.0°C 66.8°F19.3°C 96% Calm Calm -- 29.09 in985.1 mb 0.02 in0.5 mm 0.00 in0.0 mm 0.09 in2.3 mm
08:37 AM 68.0°F20.0°C 66.8°F19.3°C 96% Calm Calm -- 29.09 in985.1 mb 0.02 in0.5 mm 0.00 in0.0 mm 0.09 in2.3 mm
08:38 AM 68.0°F20.0°C 66.8°F19.3°C 96% Calm Calm -- 29.09 in985.1 mb 0.02 in0.5 mm 0.00 in0.0 mm 0.09 in2.3 mm
08:39 AM 68.0°F20.0°C 66.8°F19.3°C 96% Calm Calm -- 29.09 in985.1 mb 0.02 in0.5 mm 0.00 in0.0 mm 0.09 in2.3 mm
08:40 AM 68.0°F20.0°C 66.8°F19.3°C 96% Calm Calm -- 29.09 in985.1 mb 0.02 in0.5 mm 0.00 in0.0 mm 0.09 in2.3 mm
08:41 AM 68.0°F20.0°C 66.8°F19.3°C 96% Calm Calm -- 29.09 in985.1 mb 0.02 in0.5 mm 0.00 in0.0 mm 0.09 in2.3 mm
08:42 AM 68.0°F20.0°C 66.8°F19.3°C 96% Calm Calm -- 29.09 in985.1 mb 0.02 in0.5 mm 0.00 in0.0 mm 0.09 in2.3 mm
08:43 AM 68.0°F20.0°C 66.8°F19.3°C 96% Calm Calm -- 29.09 in985.1 mb 0.02 in0.5 mm 0.00 in0.0 mm 0.09 in2.3 mm
08:44 AM 68.0°F20.0°C 66.8°F19.3°C 96% Calm Calm -- 29.09 in985.1 mb 0.02 in0.5 mm 0.00 in0.0 mm 0.09 in2.3 mm
08:45 AM 68.0°F20.0°C 66.8°F19.3°C 96% Calm Calm -- 29.09 in985.1 mb 0.02 in0.5 mm 0.00 in0.0 mm 0.09 in2.3 mm
08:46 AM 68.0°F20.0°C 66.8°F19.3°C 96% Calm Calm -- 29.09 in985.1 mb 0.02 in0.5 mm 0.00 in0.0 mm 0.09 in2.3 mm
08:47 AM 68.0°F20.0°C 66.8°F19.3°C 96% Calm Calm -- 29.09 in985.1 mb 0.01 in0.3 mm 0.00 in0.0 mm 0.09 in2.3 mm
08:48 AM 68.0°F20.0°C 66.8°F19.3°C 96% Calm Calm -- 29.09 in985.1 mb 0.01 in0.3 mm 0.00 in0.0 mm 0.09 in2.3 mm
08:49 AM 68.0°F20.0°C 66.8°F19.3°C 96% Calm Calm -- 29.09 in985.1 mb 0.01 in0.3 mm 0.00 in0.0 mm 0.09 in2.3 mm
08:50 AM 68.0°F20.0°C 66.8°F19.3°C 96% Calm Calm -- 29.09 in985.1 mb 0.01 in0.3 mm 0.00 in0.0 mm 0.09 in2.3 mm
08:51 AM 68.0°F20.0°C 66.8°F19.3°C 96% Calm Calm -- 29.09 in985.1 mb 0.01 in0.3 mm 0.00 in0.0 mm 0.09 in2.3 mm
08:52 AM 68.0°F20.0°C 66.8°F19.3°C 96% Calm Calm -- 29.09 in985.1 mb 0.01 in0.3 mm 0.00 in0.0 mm 0.09 in2.3 mm
08:53 AM 68.0°F20.0°C 66.8°F19.3°C 96% Calm Calm -- 29.09 in985.1 mb 0.01 in0.3 mm 0.00 in0.0 mm 0.09 in2.3 mm
08:54 AM 68.0°F20.0°C 66.8°F19.3°C 96% Calm Calm -- 29.09 in985.1 mb 0.01 in0.3 mm 0.00 in0.0 mm 0.09 in2.3 mm
08:55 AM 68.0°F20.0°C 66.8°F19.3°C 96% Calm Calm -- 29.09 in985.1 mb 0.01 in0.3 mm 0.00 in0.0 mm 0.09 in2.3 mm
08:56 AM 68.0°F20.0°C 66.8°F19.3°C 96% Calm Calm -- 29.09 in985.1 mb 0.01 in0.3 mm 0.00 in0.0 mm 0.09 in2.3 mm
08:57 AM 68.2°F20.1°C 67.0°F19.4°C 96% Calm Calm -- 29.09 in985.1 mb 0.01 in0.3 mm 0.00 in0.0 mm 0.09 in2.3 mm
08:58 AM 68.2°F20.1°C 67.0°F19.4°C 96% Calm Calm -- 29.09 in985.1 mb 0.01 in0.3 mm 0.00 in0.0 mm 0.09 in2.3 mm
08:59 AM 68.2°F20.1°C 67.0°F19.4°C 96% Calm Calm -- 29.09 in985.1 mb 0.01 in0.3 mm 0.00 in0.0 mm 0.09 in2.3 mm
09:00 AM 68.2°F20.1°C 67.0°F19.4°C 96% Calm Calm -- 29.09 in985.1 mb 0.01 in0.3 mm 0.00 in0.0 mm 0.09 in2.3 mm
09:01 AM 68.2°F20.1°C 67.0°F19.4°C 96% Calm Calm -- 29.09 in985.1 mb 0.01 in0.3 mm 0.00 in0.0 mm 0.09 in2.3 mm
09:02 AM 68.2°F20.1°C 67.0°F19.4°C 96% Calm Calm -- 29.09 in985.1 mb 0.01 in0.3 mm 0.00 in0.0 mm 0.09 in2.3 mm
09:03 AM 68.2°F20.1°C 67.0°F19.4°C 96% Calm Calm -- 29.09 in985.1 mb 0.01 in0.3 mm 0.00 in0.0 mm 0.09 in2.3 mm
09:04 AM 68.2°F20.1°C 67.0°F19.4°C 96% Calm Calm -- 29.10 in985.4 mb 0.01 in0.3 mm 0.00 in0.0 mm 0.09 in2.3 mm
09:05 AM 68.2°F20.1°C 67.0°F19.4°C 96% Calm Calm -- 29.10 in985.4 mb 0.01 in0.3 mm 0.00 in0.0 mm 0.09 in2.3 mm
09:06 AM 68.2°F20.1°C 67.0°F19.4°C 96% Calm Calm -- 29.10 in985.4 mb 0.01 in0.3 mm 0.00 in0.0 mm 0.09 in2.3 mm
09:07 AM 68.2°F20.1°C 67.0°F19.4°C 96% Calm Calm -- 29.10 in985.4 mb 0.01 in0.3 mm 0.00 in0.0 mm 0.09 in2.3 mm
09:08 AM 68.2°F20.1°C 67.0°F19.4°C 96% Calm Calm -- 29.10 in985.4 mb 0.01 in0.3 mm 0.00 in0.0 mm 0.09 in2.3 mm
09:09 AM 68.2°F20.1°C 67.0°F19.4°C 96% Calm Calm 1.1 mph1.8 kmh 29.10 in985.4 mb 0.01 in0.3 mm 0.00 in0.0 mm 0.09 in2.3 mm
09:10 AM 66.9°F19.4°C 65.4°F18.6°C 95% 1.7 mph SSW2.7 kmh SSW 2.7 mph4.3 kmh 29.10 in985.4 mb 0.01 in0.3 mm 0.00 in0.0 mm 0.09 in2.3 mm
09:11 AM 66.2°F19.0°C 64.4°F18.0°C 94% 1.7 mph SSE2.7 kmh SSE 2.7 mph4.3 kmh 29.10 in985.4 mb 0.01 in0.3 mm 0.00 in0.0 mm 0.09 in2.3 mm
09:12 AM 64.6°F18.1°C 62.2°F16.8°C 92% Calm Calm 2.7 mph4.3 kmh 29.10 in985.4 mb 0.01 in0.3 mm 0.00 in0.0 mm 0.09 in2.3 mm
09:13 AM 64.2°F17.9°C 61.8°F16.6°C 92% 1.1 mph SSE1.8 kmh SSE 2.7 mph4.3 kmh 29.10 in985.4 mb 0.00 in0.0 mm 0.00 in0.0 mm 0.09 in2.3 mm
09:14 AM 63.3°F17.4°C 60.3°F15.7°C 90% 2.2 mph WSW3.5 kmh WSW 2.7 mph4.3 kmh 29.10 in985.4 mb 0.00 in0.0 mm 0.00 in0.0 mm 0.09 in2.3 mm
09:15 AM 62.6°F17.0°C 59.3°F15.2°C 89% 1.1 mph SE1.8 kmh SE 2.7 mph4.3 kmh 29.10 in985.4 mb 0.00 in0.0 mm 0.00 in0.0 mm 0.09 in2.3 mm
09:16 AM 62.4°F16.9°C 59.1°F15.1°C 89% 1.1 mph S1.8 kmh S 2.7 mph4.3 kmh 29.11 in985.8 mb 0.00 in0.0 mm 0.00 in0.0 mm 0.09 in2.3 mm
09:17 AM 61.9°F16.6°C 58.6°F14.8°C 89% 1.1 mph SSW1.8 kmh SSW 2.7 mph4.3 kmh 29.11 in985.8 mb 0.00 in0.0 mm 0.00 in0.0 mm 0.09 in2.3 mm
09:18 AM 61.2°F16.2°C 57.9°F14.4°C 89% Calm Calm 2.7 mph4.3 kmh 29.11 in985.8 mb 0.00 in0.0 mm 0.00 in0.0 mm 0.09 in2.3 mm
09:19 AM 61.2°F16.2°C 57.9°F14.4°C 89% Calm Calm 2.7 mph4.3 kmh 29.11 in985.8 mb 0.00 in0.0 mm 0.00 in0.0 mm 0.09 in2.3 mm
09:20 AM 60.8°F16.0°C 57.5°F14.2°C 89% Calm Calm 2.2 mph3.5 kmh 29.11 in985.8 mb 0.00 in0.0 mm 0.00 in0.0 mm 0.09 in2.3 mm
09:21 AM 60.4°F15.8°C 57.1°F13.9°C 89% Calm Calm 2.2 mph3.5 kmh 29.11 in985.8 mb 0.00 in0.0 mm 0.00 in0.0 mm 0.09 in2.3 mm
09:22 AM 60.4°F15.8°C 57.1°F13.9°C 89% Calm Calm 2.2 mph3.5 kmh 29.11 in985.8 mb 0.00 in0.0 mm 0.00 in0.0 mm 0.09 in2.3 mm
09:23 AM 60.3°F15.7°C 57.0°F13.9°C 89% Calm Calm 2.2 mph3.5 kmh 29.11 in985.8 mb 0.00 in0.0 mm 0.00 in0.0 mm 0.09 in2.3 mm
09:24 AM 59.7°F15.4°C 56.5°F13.6°C 89% Calm Calm 2.2 mph3.5 kmh 29.11 in985.8 mb 0.01 in0.3 mm 0.60 in15.2 mm 0.10 in2.5 mm
09:25 AM 59.5°F15.3°C 56.3°F13.5°C 89% 1.7 mph SSW2.7 kmh SSW 1.7 mph2.7 kmh 29.11 in985.8 mb 0.01 in0.3 mm 0.00 in0.0 mm 0.10 in2.5 mm
09:26 AM 59.4°F15.2°C 56.2°F13.4°C 89% Calm Calm 2.2 mph3.5 kmh 29.11 in985.8 mb 0.01 in0.3 mm 0.00 in0.0 mm 0.10 in2.5 mm
09:27 AM 59.4°F15.2°C 56.2°F13.4°C 89% 2.2 mph SSW3.5 kmh SSW 2.2 mph3.5 kmh 29.11 in985.8 mb 0.02 in0.5 mm 0.60 in15.2 mm 0.11 in2.8 mm
09:28 AM 59.4°F15.2°C 56.2°F13.4°C 89% 1.7 mph S2.7 kmh S 2.2 mph3.5 kmh 29.12 in986.1 mb 0.02 in0.5 mm 0.00 in0.0 mm 0.11 in2.8 mm
09:29 AM 59.4°F15.2°C 56.2°F13.4°C 89% Calm Calm 2.2 mph3.5 kmh 29.12 in986.1 mb 0.02 in0.5 mm 0.00 in0.0 mm 0.11 in2.8 mm
09:30 AM 59.4°F15.2°C 56.2°F13.4°C 89% 1.1 mph S1.8 kmh S 2.2 mph3.5 kmh 29.12 in986.1 mb 0.02 in0.5 mm 0.00 in0.0 mm 0.11 in2.8 mm
09:31 AM 59.2°F15.1°C 56.0°F13.3°C 89% 1.7 mph S2.7 kmh S 2.2 mph3.5 kmh 29.12 in986.1 mb 0.03 in0.8 mm 0.60 in15.2 mm 0.12 in3.0 mm
09:32 AM 59.2°F15.1°C 56.0°F13.3°C 89% 1.1 mph SW1.8 kmh SW 2.2 mph3.5 kmh 29.12 in986.1 mb 0.03 in0.8 mm 0.00 in0.0 mm 0.12 in3.0 mm
09:33 AM 58.8°F14.9°C 55.6°F13.1°C 89% Calm Calm 2.2 mph3.5 kmh 29.12 in986.1 mb 0.03 in0.8 mm 0.00 in0.0 mm 0.12 in3.0 mm
09:34 AM 58.5°F14.7°C 55.3°F12.9°C 89% Calm Calm 2.2 mph3.5 kmh 29.12 in986.1 mb 0.03 in0.8 mm 0.00 in0.0 mm 0.12 in3.0 mm
09:35 AM 58.5°F14.7°C 55.3°F12.9°C 89% Calm Calm 2.2 mph3.5 kmh 29.12 in986.1 mb 0.03 in0.8 mm 0.00 in0.0 mm 0.12 in3.0 mm
09:36 AM 58.3°F14.6°C 55.1°F12.8°C 89% Calm Calm 2.2 mph3.5 kmh 29.12 in986.1 mb 0.03 in0.8 mm 0.00 in0.0 mm 0.12 in3.0 mm
09:37 AM 58.3°F14.6°C 55.1°F12.8°C 89% Calm Calm 1.7 mph2.7 kmh 29.12 in986.1 mb 0.03 in0.8 mm 0.00 in0.0 mm 0.12 in3.0 mm
09:38 AM 58.1°F14.5°C 54.9°F12.7°C 89% Calm Calm 1.7 mph2.7 kmh 29.12 in986.1 mb 0.04 in1.0 mm 0.60 in15.2 mm 0.13 in3.3 mm
09:39 AM 57.9°F14.4°C 54.7°F12.6°C 89% 1.1 mph SSW1.8 kmh SSW 1.7 mph2.7 kmh 29.12 in986.1 mb 0.04 in1.0 mm 0.00 in0.0 mm 0.13 in3.3 mm
09:40 AM 57.6°F14.2°C 54.4°F12.4°C 89% 1.1 mph SW1.8 kmh SW 1.7 mph2.7 kmh 29.12 in986.1 mb 0.04 in1.0 mm 0.00 in0.0 mm 0.13 in3.3 mm
09:41 AM 57.6°F14.2°C 54.4°F12.4°C 89% 1.1 mph SW1.8 kmh SW 1.7 mph2.7 kmh 29.12 in986.1 mb 0.04 in1.0 mm 0.00 in0.0 mm 0.13 in3.3 mm
09:42 AM 57.2°F14.0°C 54.3°F12.4°C 90% 1.1 mph SSW1.8 kmh SSW 1.7 mph2.7 kmh 29.12 in986.1 mb 0.04 in1.0 mm 0.00 in0.0 mm 0.13 in3.3 mm
09:43 AM 57.0°F13.9°C 54.1°F12.3°C 90% Calm Calm 1.7 mph2.7 kmh 29.12 in986.1 mb 0.04 in1.0 mm 0.00 in0.0 mm 0.13 in3.3 mm
09:44 AM 57.0°F13.9°C 54.1°F12.3°C 90% Calm Calm 1.7 mph2.7 kmh 29.12 in986.1 mb 0.04 in1.0 mm 0.00 in0.0 mm 0.13 in3.3 mm
09:45 AM 57.2°F14.0°C 54.3°F12.4°C 90% 1.1 mph S1.8 kmh S 1.7 mph2.7 kmh 29.12 in986.1 mb 0.04 in1.0 mm 0.00 in0.0 mm 0.13 in3.3 mm
09:46 AM 57.2°F14.0°C 54.3°F12.4°C 90% Calm Calm 1.7 mph2.7 kmh 29.12 in986.1 mb 0.04 in1.0 mm 0.00 in0.0 mm 0.13 in3.3 mm
09:47 AM 57.2°F14.0°C 54.3°F12.4°C 90% Calm Calm 1.7 mph2.7 kmh 29.12 in986.1 mb 0.04 in1.0 mm 0.00 in0.0 mm 0.13 in3.3 mm
09:48 AM 57.0°F13.9°C 54.1°F12.3°C 90% Calm Calm 1.7 mph2.7 kmh 29.12 in986.1 mb 0.05 in1.3 mm 0.60 in15.2 mm 0.14 in3.6 mm
09:49 AM 56.7°F13.7°C 54.1°F12.3°C 91% Calm Calm 1.7 mph2.7 kmh 29.12 in986.1 mb 0.05 in1.3 mm 0.00 in0.0 mm 0.14 in3.6 mm
09:50 AM 56.5°F13.6°C 53.9°F12.2°C 91% Calm Calm 1.7 mph2.7 kmh 29.12 in986.1 mb 0.05 in1.3 mm 0.00 in0.0 mm 0.14 in3.6 mm
09:51 AM 56.5°F13.6°C 53.9°F12.2°C 91% Calm Calm 1.7 mph2.7 kmh 29.12 in986.1 mb 0.05 in1.3 mm 0.00 in0.0 mm 0.14 in3.6 mm
09:52 AM 56.3°F13.5°C 53.7°F12.1°C 91% Calm Calm 1.7 mph2.7 kmh 29.12 in986.1 mb 0.05 in1.3 mm 0.00 in0.0 mm 0.14 in3.6 mm
09:53 AM 56.3°F13.5°C 53.7°F12.1°C 91% Calm Calm 1.1 mph1.8 kmh 29.12 in986.1 mb 0.05 in1.3 mm 0.00 in0.0 mm 0.14 in3.6 mm
09:54 AM 56.3°F13.5°C 54.0°F12.2°C 92% Calm Calm 1.1 mph1.8 kmh 29.12 in986.1 mb 0.05 in1.3 mm 0.00 in0.0 mm 0.14 in3.6 mm
09:55 AM 56.3°F13.5°C 54.0°F12.2°C 92% Calm Calm 1.1 mph1.8 kmh 29.12 in986.1 mb 0.05 in1.3 mm 0.00 in0.0 mm 0.14 in3.6 mm
09:56 AM 56.3°F13.5°C 54.0°F12.2°C 92% Calm Calm 1.1 mph1.8 kmh 29.12 in986.1 mb 0.05 in1.3 mm 0.00 in0.0 mm 0.14 in3.6 mm
09:57 AM 56.1°F13.4°C 53.8°F12.1°C 92% Calm Calm 1.1 mph1.8 kmh 29.12 in986.1 mb 0.05 in1.3 mm 0.00 in0.0 mm 0.14 in3.6 mm
09:58 AM 55.9°F13.3°C 53.6°F12.0°C 92% Calm Calm 1.1 mph1.8 kmh 29.12 in986.1 mb 0.05 in1.3 mm 0.00 in0.0 mm 0.14 in3.6 mm
09:59 AM 55.9°F13.3°C 53.6°F12.0°C 92% Calm Calm 1.1 mph1.8 kmh 29.12 in986.1 mb 0.06 in1.5 mm 0.60 in15.2 mm 0.15 in3.8 mm
10:00 AM 55.9°F13.3°C 53.6°F12.0°C 92% Calm Calm 1.1 mph1.8 kmh 29.12 in986.1 mb 0.06 in1.5 mm 0.00 in0.0 mm 0.15 in3.8 mm
10:01 AM 55.9°F13.3°C 53.6°F12.0°C 92% Calm Calm 1.1 mph1.8 kmh 29.12 in986.1 mb 0.06 in1.5 mm 0.00 in0.0 mm 0.15 in3.8 mm
10:02 AM 56.1°F13.4°C 53.8°F12.1°C 92% Calm Calm 1.1 mph1.8 kmh 29.12 in986.1 mb 0.06 in1.5 mm 0.00 in0.0 mm 0.15 in3.8 mm
10:03 AM 56.1°F13.4°C 53.8°F12.1°C 92% Calm Calm 1.1 mph1.8 kmh 29.12 in986.1 mb 0.06 in1.5 mm 0.00 in0.0 mm 0.15 in3.8 mm
10:04 AM 56.1°F13.4°C 53.8°F12.1°C 92% Calm Calm 1.1 mph1.8 kmh 29.12 in986.1 mb 0.06 in1.5 mm 0.00 in0.0 mm 0.15 in3.8 mm
10:05 AM 55.9°F13.3°C 53.6°F12.0°C 92% Calm Calm -- 29.12 in986.1 mb 0.06 in1.5 mm 0.00 in0.0 mm 0.15 in3.8 mm
10:06 AM 55.9°F13.3°C 53.6°F12.0°C 92% Calm Calm -- 29.12 in986.1 mb 0.06 in1.5 mm 0.00 in0.0 mm 0.15 in3.8 mm
10:07 AM 55.9°F13.3°C 53.6°F12.0°C 92% Calm Calm -- 29.12 in986.1 mb 0.06 in1.5 mm 0.00 in0.0 mm 0.15 in3.8 mm
10:08 AM 55.9°F13.3°C 53.6°F12.0°C 92% 1.7 mph SW2.7 kmh SW 1.7 mph2.7 kmh 29.12 in986.1 mb 0.06 in1.5 mm 0.00 in0.0 mm 0.15 in3.8 mm
10:09 AM 55.9°F13.3°C 53.6°F12.0°C 92% 1.1 mph S1.8 kmh S 1.7 mph2.7 kmh 29.12 in986.1 mb 0.06 in1.5 mm 0.00 in0.0 mm 0.15 in3.8 mm
10:10 AM 55.9°F13.3°C 53.6°F12.0°C 92% 1.7 mph SSW2.7 kmh SSW 1.7 mph2.7 kmh 29.12 in986.1 mb 0.06 in1.5 mm 0.00 in0.0 mm 0.15 in3.8 mm
10:11 AM 55.8°F13.2°C 53.5°F11.9°C 92% 2.2 mph W3.5 kmh W 2.2 mph3.5 kmh 29.12 in986.1 mb 0.06 in1.5 mm 0.00 in0.0 mm 0.15 in3.8 mm
10:12 AM 55.6°F13.1°C 53.3°F11.8°C 92% Calm Calm 2.2 mph3.5 kmh 29.12 in986.1 mb 0.06 in1.5 mm 0.00 in0.0 mm 0.15 in3.8 mm
10:13 AM 55.6°F13.1°C 53.3°F11.8°C 92% Calm Calm 2.2 mph3.5 kmh 29.12 in986.1 mb 0.06 in1.5 mm 0.00 in0.0 mm 0.15 in3.8 mm
10:14 AM 55.4°F13.0°C 53.1°F11.7°C 92% Calm Calm 2.2 mph3.5 kmh 29.12 in986.1 mb 0.06 in1.5 mm 0.00 in0.0 mm 0.15 in3.8 mm
10:15 AM 55.4°F13.0°C 53.1°F11.7°C 92% Calm Calm 2.2 mph3.5 kmh 29.12 in986.1 mb 0.06 in1.5 mm 0.00 in0.0 mm 0.15 in3.8 mm
10:16 AM 55.4°F13.0°C 53.1°F11.7°C 92% Calm Calm 2.2 mph3.5 kmh 29.12 in986.1 mb 0.06 in1.5 mm 0.00 in0.0 mm 0.15 in3.8 mm
10:17 AM 55.4°F13.0°C 53.1°F11.7°C 92% Calm Calm 2.2 mph3.5 kmh 29.12 in986.1 mb 0.06 in1.5 mm 0.00 in0.0 mm 0.15 in3.8 mm
10:18 AM 55.4°F13.0°C 53.1°F11.7°C 92% Calm Calm 2.2 mph3.5 kmh 29.12 in986.1 mb 0.06 in1.5 mm 0.00 in0.0 mm 0.15 in3.8 mm
10:19 AM 55.4°F13.0°C 53.1°F11.7°C 92% Calm Calm 2.2 mph3.5 kmh 29.12 in986.1 mb 0.06 in1.5 mm 0.00 in0.0 mm 0.15 in3.8 mm
10:20 AM 55.4°F13.0°C 53.1°F11.7°C 92% Calm Calm 2.2 mph3.5 kmh 29.12 in986.1 mb 0.06 in1.5 mm 0.00 in0.0 mm 0.15 in3.8 mm
10:21 AM 55.2°F12.9°C 52.9°F11.6°C 92% 1.1 mph SW1.8 kmh SW 1.7 mph2.7 kmh 29.12 in986.1 mb 0.06 in1.5 mm 0.00 in0.0 mm 0.15 in3.8 mm
10:22 AM 55.0°F12.8°C 52.7°F11.5°C 92% 1.1 mph W1.8 kmh W 1.7 mph2.7 kmh 29.12 in986.1 mb 0.06 in1.5 mm 0.00 in0.0 mm 0.15 in3.8 mm
10:23 AM 55.0°F12.8°C 52.7°F11.5°C 92% 1.1 mph SE1.8 kmh SE 1.7 mph2.7 kmh 29.12 in986.1 mb 0.06 in1.5 mm 0.00 in0.0 mm 0.15 in3.8 mm
10:24 AM 54.9°F12.7°C 52.6°F11.4°C 92% 1.7 mph SSW2.7 kmh SSW 1.7 mph2.7 kmh 29.12 in986.1 mb 0.05 in1.3 mm 0.00 in0.0 mm 0.15 in3.8 mm
10:25 AM 54.9°F12.7°C 52.6°F11.4°C 92% 1.1 mph S1.8 kmh S 1.7 mph2.7 kmh 29.12 in986.1 mb 0.05 in1.3 mm 0.00 in0.0 mm 0.15 in3.8 mm
10:26 AM 54.9°F12.7°C 52.6°F11.4°C 92% Calm Calm 1.7 mph2.7 kmh 29.12 in986.1 mb 0.05 in1.3 mm 0.00 in0.0 mm 0.15 in3.8 mm
10:27 AM 54.7°F12.6°C 52.4°F11.3°C 92% Calm Calm 1.7 mph2.7 kmh 29.13 in986.5 mb 0.04 in1.0 mm 0.00 in0.0 mm 0.15 in3.8 mm
10:28 AM 54.7°F12.6°C 52.4°F11.3°C 92% Calm Calm 1.7 mph2.7 kmh 29.13 in986.5 mb 0.04 in1.0 mm 0.00 in0.0 mm 0.15 in3.8 mm
10:29 AM 54.7°F12.6°C 52.4°F11.3°C 92% Calm Calm 1.7 mph2.7 kmh 29.13 in986.5 mb 0.04 in1.0 mm 0.00 in0.0 mm 0.15 in3.8 mm
10:30 AM 54.7°F12.6°C 52.4°F11.3°C 92% Calm Calm 1.7 mph2.7 kmh 29.13 in986.5 mb 0.04 in1.0 mm 0.00 in0.0 mm 0.15 in3.8 mm
10:31 AM 54.7°F12.6°C 52.4°F11.3°C 92% 1.7 mph S2.7 kmh S 1.7 mph2.7 kmh 29.13 in986.5 mb 0.04 in1.0 mm 0.00 in0.0 mm 0.15 in3.8 mm
10:32 AM 54.7°F12.6°C 52.4°F11.3°C 92% 1.7 mph SE2.7 kmh SE 2.2 mph3.5 kmh 29.13 in986.5 mb 0.03 in0.8 mm 0.00 in0.0 mm 0.15 in3.8 mm
10:54 AM 53.6°F12.0°C 51.3°F10.7°C 92% 2.2 mph S3.5 kmh S 3.7 mph6.0 kmh 29.15 in987.1 mb 0.01 in0.3 mm 0.00 in0.0 mm 0.15 in3.8 mm
10:55 AM 53.6°F12.0°C 51.3°F10.7°C 92% 1.7 mph SSW2.7 kmh SSW 3.7 mph6.0 kmh 29.15 in987.1 mb 0.01 in0.3 mm 0.00 in0.0 mm 0.15 in3.8 mm
10:56 AM 53.4°F11.9°C 51.1°F10.6°C 92% 1.7 mph SSW2.7 kmh SSW 3.7 mph6.0 kmh 29.15 in987.1 mb 0.01 in0.3 mm 0.00 in0.0 mm 0.15 in3.8 mm
10:57 AM 53.4°F11.9°C 51.1°F10.6°C 92% 1.1 mph SSW1.8 kmh SSW 3.2 mph5.1 kmh 29.15 in987.1 mb 0.02 in0.5 mm 0.60 in15.2 mm 0.16 in4.1 mm
10:58 AM 53.4°F11.9°C 51.1°F10.6°C 92% 1.7 mph ESE2.7 kmh ESE 3.2 mph5.1 kmh 29.15 in987.1 mb 0.02 in0.5 mm 0.00 in0.0 mm 0.16 in4.1 mm
12:27 PM 49.1°F9.5°C 46.9°F8.3°C 92% 1.1 mph SSW1.8 kmh SSW 2.7 mph4.3 kmh 29.14 in986.8 mb 0.01 in0.3 mm 0.02 in0.5 mm 0.20 in5.1 mm
12:28 PM 49.1°F9.5°C 46.9°F8.3°C 92% 1.1 mph SSW1.8 kmh SSW 2.7 mph4.3 kmh 29.14 in986.8 mb 0.01 in0.3 mm 0.00 in0.0 mm 0.20 in5.1 mm
12:29 PM 48.9°F9.4°C 46.7°F8.2°C 92% 2.2 mph NE3.5 kmh NE 2.7 mph4.3 kmh 29.14 in986.8 mb 0.01 in0.3 mm 0.00 in0.0 mm 0.20 in5.1 mm
12:30 PM 48.6°F9.2°C 46.1°F7.8°C 91% 1.1 mph SSW1.8 kmh SSW 2.7 mph4.3 kmh 29.14 in986.8 mb 0.01 in0.3 mm 0.00 in0.0 mm 0.20 in5.1 mm
12:31 PM 48.6°F9.2°C 46.1°F7.8°C 91% 1.7 mph S2.7 kmh S 2.7 mph4.3 kmh 29.14 in986.8 mb 0.01 in0.3 mm 0.00 in0.0 mm 0.20 in5.1 mm
12:32 PM 48.6°F9.2°C 46.1°F7.8°C 91% 1.1 mph SSW1.8 kmh SSW 2.7 mph4.3 kmh 29.14 in986.8 mb 0.01 in0.3 mm 0.00 in0.0 mm 0.20 in5.1 mm
12:33 PM 48.6°F9.2°C 46.4°F8.0°C 92% 1.7 mph SSW2.7 kmh SSW 2.7 mph4.3 kmh 29.14 in986.8 mb 0.01 in0.3 mm 0.00 in0.0 mm 0.20 in5.1 mm
12:34 PM 48.6°F9.2°C 46.4°F8.0°C 92% 1.7 mph SSW2.7 kmh SSW 2.7 mph4.3 kmh 29.14 in986.8 mb 0.01 in0.3 mm 0.00 in0.0 mm 0.20 in5.1 mm
12:35 PM 48.4°F9.1°C 46.2°F7.9°C 92% 2.2 mph SW3.5 kmh SW 2.7 mph4.3 kmh 29.14 in986.8 mb 0.01 in0.3 mm 0.00 in0.0 mm 0.20 in5.1 mm
12:36 PM 48.0°F8.9°C 45.8°F7.7°C 92% 1.7 mph WSW2.7 kmh WSW 2.7 mph4.3 kmh 29.14 in986.8 mb 0.01 in0.3 mm 0.00 in0.0 mm 0.20 in5.1 mm
12:37 PM 48.0°F8.9°C 45.8°F7.7°C 92% 1.7 mph SSW2.7 kmh SSW 2.7 mph4.3 kmh 29.14 in986.8 mb 0.01 in0.3 mm 0.00 in0.0 mm 0.20 in5.1 mm
12:38 PM 48.2°F9.0°C 46.0°F7.8°C 92% 1.7 mph SW2.7 kmh SW 2.7 mph4.3 kmh 29.14 in986.8 mb 0.01 in0.3 mm 0.00 in0.0 mm 0.20 in5.1 mm
12:39 PM 48.2°F9.0°C 46.0°F7.8°C 92% 1.7 mph SW2.7 kmh SW 2.7 mph4.3 kmh 29.14 in986.8 mb 0.02 in0.5 mm 0.60 in15.2 mm 0.21 in5.3 mm
12:40 PM 48.2°F9.0°C 46.0°F7.8°C 92% Calm Calm 2.2 mph3.5 kmh 29.14 in986.8 mb 0.02 in0.5 mm 0.00 in0.0 mm 0.21 in5.3 mm
12:41 PM 48.2°F9.0°C 46.0°F7.8°C 92% Calm Calm 2.2 mph3.5 kmh 29.14 in986.8 mb 0.02 in0.5 mm 0.00 in0.0 mm 0.21 in5.3 mm
12:42 PM 48.0°F8.9°C 45.8°F7.7°C 92% 2.2 mph SSW3.5 kmh SSW 3.2 mph5.1 kmh 29.14 in986.8 mb 0.02 in0.5 mm 0.00 in0.0 mm 0.21 in5.3 mm
12:43 PM 48.0°F8.9°C 45.8°F7.7°C 92% 1.7 mph S2.7 kmh S 3.2 mph5.1 kmh 29.14 in986.8 mb 0.02 in0.5 mm 0.00 in0.0 mm 0.21 in5.3 mm
12:44 PM 48.0°F8.9°C 45.8°F7.7°C 92% 2.2 mph SSW3.5 kmh SSW 3.2 mph5.1 kmh 29.14 in986.8 mb 0.02 in0.5 mm 0.00 in0.0 mm 0.21 in5.3 mm
12:45 PM 48.0°F8.9°C 45.8°F7.7°C 92% 1.7 mph SE2.7 kmh SE 3.2 mph5.1 kmh 29.14 in986.8 mb 0.02 in0.5 mm 0.00 in0.0 mm 0.21 in5.3 mm
12:46 PM 48.0°F8.9°C 45.8°F7.7°C 92% 1.1 mph SE1.8 kmh SE 3.2 mph5.1 kmh 29.14 in986.8 mb 0.01 in0.3 mm 0.00 in0.0 mm 0.21 in5.3 mm
12:47 PM 48.0°F8.9°C 45.8°F7.7°C 92% 1.7 mph SW2.7 kmh SW 3.2 mph5.1 kmh 29.14 in986.8 mb 0.01 in0.3 mm 0.00 in0.0 mm 0.21 in5.3 mm
12:48 PM 48.0°F8.9°C 45.8°F7.7°C 92% Calm Calm 3.2 mph5.1 kmh 29.14 in986.8 mb 0.01 in0.3 mm 0.00 in0.0 mm 0.21 in5.3 mm
12:49 PM 48.0°F8.9°C 45.8°F7.7°C 92% 1.1 mph SE1.8 kmh SE 3.2 mph5.1 kmh 29.14 in986.8 mb 0.01 in0.3 mm 0.00 in0.0 mm 0.21 in5.3 mm
12:50 PM 47.8°F8.8°C 45.6°F7.6°C 92% Calm Calm 3.2 mph5.1 kmh 29.14 in986.8 mb 0.01 in0.3 mm 0.00 in0.0 mm 0.21 in5.3 mm
12:51 PM 47.8°F8.8°C 45.6°F7.6°C 92% 2.2 mph SE3.5 kmh SE 3.2 mph5.1 kmh 29.14 in986.8 mb 0.01 in0.3 mm 0.00 in0.0 mm 0.21 in5.3 mm
12:52 PM 47.7°F8.7°C 45.5°F7.5°C 92% 2.7 mph SE4.3 kmh SE 2.7 mph4.3 kmh 29.13 in986.5 mb 0.01 in0.3 mm 0.00 in0.0 mm 0.21 in5.3 mm
12:53 PM 47.7°F8.7°C 45.5°F7.5°C 92% 1.1 mph SSW1.8 kmh SSW 2.7 mph4.3 kmh 29.13 in986.5 mb 0.01 in0.3 mm 0.00 in0.0 mm 0.21 in5.3 mm
12:54 PM 47.7°F8.7°C 45.5°F7.5°C 92% 2.2 mph SSE3.5 kmh SSE 2.7 mph4.3 kmh 29.13 in986.5 mb 0.01 in0.3 mm 0.00 in0.0 mm 0.21 in5.3 mm
12:55 PM 47.7°F8.7°C 45.5°F7.5°C 92% Calm Calm 2.7 mph4.3 kmh 29.13 in986.5 mb 0.01 in0.3 mm 0.00 in0.0 mm 0.21 in5.3 mm
12:56 PM 47.7°F8.7°C 45.5°F7.5°C 92% 2.7 mph S4.3 kmh S 2.7 mph4.3 kmh 29.13 in986.5 mb 0.01 in0.3 mm 0.00 in0.0 mm 0.21 in5.3 mm
12:57 PM 47.7°F8.7°C 45.5°F7.5°C 92% 1.7 mph WSW2.7 kmh WSW 2.7 mph4.3 kmh 29.13 in986.5 mb 0.01 in0.3 mm 0.00 in0.0 mm 0.21 in5.3 mm
12:58 PM 47.7°F8.7°C 45.5°F7.5°C 92% 1.1 mph SSW1.8 kmh SSW 2.7 mph4.3 kmh 29.13 in986.5 mb 0.01 in0.3 mm 0.00 in0.0 mm 0.21 in5.3 mm
12:59 PM 47.5°F8.6°C 45.3°F7.4°C 92% 1.7 mph SSW2.7 kmh SSW 2.7 mph4.3 kmh 29.13 in986.5 mb 0.01 in0.3 mm 0.00 in0.0 mm 0.21 in5.3 mm
01:00 PM 47.5°F8.6°C 45.3°F7.4°C 92% 1.7 mph WSW2.7 kmh WSW 2.7 mph4.3 kmh 29.13 in986.5 mb 0.01 in0.3 mm 0.00 in0.0 mm 0.21 in5.3 mm
01:01 PM 47.5°F8.6°C 45.3°F7.4°C 92% Calm Calm 2.7 mph4.3 kmh 29.13 in986.5 mb 0.01 in0.3 mm 0.00 in0.0 mm 0.21 in5.3 mm
01:02 PM 47.5°F8.6°C 45.3°F7.4°C 92% 2.2 mph SSW3.5 kmh SSW 2.7 mph4.3 kmh 29.13 in986.5 mb 0.01 in0.3 mm 0.00 in0.0 mm 0.21 in5.3 mm
01:03 PM 47.5°F8.6°C 45.3°F7.4°C 92% 1.7 mph S2.7 kmh S 2.7 mph4.3 kmh 29.13 in986.5 mb 0.01 in0.3 mm 0.00 in0.0 mm 0.21 in5.3 mm
01:04 PM 47.5°F8.6°C 45.3°F7.4°C 92% 2.2 mph S3.5 kmh S 2.7 mph4.3 kmh 29.14 in986.8 mb 0.01 in0.3 mm 0.00 in0.0 mm 0.21 in5.3 mm
01:05 PM 47.5°F8.6°C 45.3°F7.4°C 92% 1.1 mph S1.8 kmh S 2.7 mph4.3 kmh 29.14 in986.8 mb 0.01 in0.3 mm 0.00 in0.0 mm 0.21 in5.3 mm
01:06 PM 47.3°F8.5°C 45.1°F7.3°C 92% Calm Calm 3.7 mph6.0 kmh 29.14 in986.8 mb 0.01 in0.3 mm 0.00 in0.0 mm 0.21 in5.3 mm
01:07 PM 47.3°F8.5°C 45.1°F7.3°C 92% 1.1 mph S1.8 kmh S 3.7 mph6.0 kmh 29.14 in986.8 mb 0.01 in0.3 mm 0.00 in0.0 mm 0.21 in5.3 mm
01:08 PM 47.5°F8.6°C 45.3°F7.4°C 92% 1.1 mph E1.8 kmh E 3.7 mph6.0 kmh 29.14 in986.8 mb 0.01 in0.3 mm 0.00 in0.0 mm 0.21 in5.3 mm
01:09 PM 47.5°F8.6°C 45.3°F7.4°C 92% 1.1 mph S1.8 kmh S 3.7 mph6.0 kmh 29.14 in986.8 mb 0.01 in0.3 mm 0.00 in0.0 mm 0.21 in5.3 mm
01:10 PM 47.5°F8.6°C 45.6°F7.6°C 93% 1.7 mph SW2.7 kmh SW 3.7 mph6.0 kmh 29.14 in986.8 mb 0.01 in0.3 mm 0.00 in0.0 mm 0.21 in5.3 mm
01:11 PM 47.5°F8.6°C 45.6°F7.6°C 93% Calm Calm 3.7 mph6.0 kmh 29.14 in986.8 mb 0.01 in0.3 mm 0.00 in0.0 mm 0.21 in5.3 mm
01:12 PM 47.5°F8.6°C 45.6°F7.6°C 93% 1.1 mph SSW1.8 kmh SSW 3.7 mph6.0 kmh 29.14 in986.8 mb 0.01 in0.3 mm 0.00 in0.0 mm 0.21 in5.3 mm
01:13 PM 47.5°F8.6°C 45.6°F7.6°C 93% 2.7 mph NNW4.3 kmh NNW 3.7 mph6.0 kmh 29.14 in986.8 mb 0.01 in0.3 mm 0.00 in0.0 mm 0.21 in5.3 mm
01:14 PM 47.3°F8.5°C 45.4°F7.4°C 93% 1.7 mph SSW2.7 kmh SSW 3.7 mph6.0 kmh 29.14 in986.8 mb 0.01 in0.3 mm 0.00 in0.0 mm 0.21 in5.3 mm
01:15 PM 47.3°F8.5°C 45.4°F7.4°C 93% Calm Calm 3.7 mph6.0 kmh 29.14 in986.8 mb 0.01 in0.3 mm 0.00 in0.0 mm 0.21 in5.3 mm
01:16 PM 47.3°F8.5°C 45.4°F7.4°C 93% Calm Calm 2.7 mph4.3 kmh 29.14 in986.8 mb 0.01 in0.3 mm 0.00 in0.0 mm 0.21 in5.3 mm
01:17 PM 47.3°F8.5°C 45.4°F7.4°C 93% 1.7 mph S2.7 kmh S 2.7 mph4.3 kmh 29.14 in986.8 mb 0.01 in0.3 mm 0.00 in0.0 mm 0.21 in5.3 mm
01:18 PM 47.3°F8.5°C 45.4°F7.4°C 93% 1.7 mph S2.7 kmh S 2.7 mph4.3 kmh 29.14 in986.8 mb 0.01 in0.3 mm 0.00 in0.0 mm 0.21 in5.3 mm
01:19 PM 47.1°F8.4°C 44.9°F7.2°C 92% 3.7 mph SE6.0 kmh SE 3.7 mph6.0 kmh 29.14 in986.8 mb 0.01 in0.3 mm 0.00 in0.0 mm 0.21 in5.3 mm
01:20 PM 46.9°F8.3°C 44.7°F7.1°C 92% 2.7 mph SSW4.3 kmh SSW 3.7 mph6.0 kmh 29.14 in986.8 mb 0.01 in0.3 mm 0.00 in0.0 mm 0.21 in5.3 mm
01:21 PM 46.9°F8.3°C 44.7°F7.1°C 92% 2.2 mph SSW3.5 kmh SSW 3.7 mph6.0 kmh 29.14 in986.8 mb 0.01 in0.3 mm 0.00 in0.0 mm 0.21 in5.3 mm
01:22 PM 46.9°F8.3°C 44.7°F7.1°C 92% 1.1 mph S1.8 kmh S 3.7 mph6.0 kmh 29.14 in986.8 mb 0.01 in0.3 mm 0.00 in0.0 mm 0.21 in5.3 mm
01:23 PM 46.9°F8.3°C 44.7°F7.1°C 92% 1.7 mph SW2.7 kmh SW 3.7 mph6.0 kmh 29.14 in986.8 mb 0.01 in0.3 mm 0.00 in0.0 mm 0.21 in5.3 mm
01:24 PM 46.9°F8.3°C 44.7°F7.1°C 92% 1.7 mph S2.7 kmh S 3.7 mph6.0 kmh 29.14 in986.8 mb 0.01 in0.3 mm 0.00 in0.0 mm 0.21 in5.3 mm
01:25 PM 46.6°F8.1°C 44.4°F6.9°C 92% 2.2 mph NNE3.5 kmh NNE 3.7 mph6.0 kmh 29.14 in986.8 mb 0.01 in0.3 mm 0.00 in0.0 mm 0.21 in5.3 mm
01:26 PM 46.6°F8.1°C 44.4°F6.9°C 92% 2.2 mph SSW3.5 kmh SSW 3.7 mph6.0 kmh 29.14 in986.8 mb 0.01 in0.3 mm 0.00 in0.0 mm 0.21 in5.3 mm
01:27 PM 46.4°F8.0°C 44.2°F6.8°C 92% 1.7 mph S2.7 kmh S 4.2 mph6.8 kmh 29.14 in986.8 mb 0.01 in0.3 mm 0.00 in0.0 mm 0.21 in5.3 mm
01:28 PM 46.4°F8.0°C 44.2°F6.8°C 92% 1.1 mph WSW1.8 kmh WSW 4.2 mph6.8 kmh 29.14 in986.8 mb 0.01 in0.3 mm 0.00 in0.0 mm 0.21 in5.3 mm
01:29 PM 46.4°F8.0°C 44.2°F6.8°C 92% 2.7 mph S4.3 kmh S 4.2 mph6.8 kmh 29.14 in986.8 mb 0.01 in0.3 mm 0.00 in0.0 mm 0.21 in5.3 mm
01:30 PM 46.4°F8.0°C 44.2°F6.8°C 92% 1.7 mph SSE2.7 kmh SSE 4.2 mph6.8 kmh 29.14 in986.8 mb 0.01 in0.3 mm 0.00 in0.0 mm 0.21 in5.3 mm
01:31 PM 46.4°F8.0°C 44.2°F6.8°C 92% Calm Calm 4.2 mph6.8 kmh 29.14 in986.8 mb 0.01 in0.3 mm 0.00 in0.0 mm 0.21 in5.3 mm
01:32 PM 46.6°F8.1°C 44.4°F6.9°C 92% 1.7 mph SW2.7 kmh SW 4.2 mph6.8 kmh 29.14 in986.8 mb 0.01 in0.3 mm 0.00 in0.0 mm 0.21 in5.3 mm
01:33 PM 46.6°F8.1°C 44.4°F6.9°C 92% 2.7 mph SW4.3 kmh SW 4.2 mph6.8 kmh 29.14 in986.8 mb 0.01 in0.3 mm 0.00 in0.0 mm 0.21 in5.3 mm
01:34 PM 46.6°F8.1°C 44.4°F6.9°C 92% 2.2 mph NNW3.5 kmh NNW 4.2 mph6.8 kmh 29.14 in986.8 mb 0.01 in0.3 mm 0.00 in0.0 mm 0.21 in5.3 mm
01:35 PM 46.6°F8.1°C 44.4°F6.9°C 92% 1.1 mph SSW1.8 kmh SSW 4.2 mph6.8 kmh 29.14 in986.8 mb 0.01 in0.3 mm 0.00 in0.0 mm 0.21 in5.3 mm
01:36 PM 46.6°F8.1°C 44.4°F6.9°C 92% 2.2 mph S3.5 kmh S 4.2 mph6.8 kmh 29.14 in986.8 mb 0.01 in0.3 mm 0.00 in0.0 mm 0.21 in5.3 mm
01:37 PM 46.6°F8.1°C 44.4°F6.9°C 92% 1.1 mph NW1.8 kmh NW 2.7 mph4.3 kmh 29.14 in986.8 mb 0.01 in0.3 mm 0.00 in0.0 mm 0.21 in5.3 mm
01:38 PM 46.6°F8.1°C 44.4°F6.9°C 92% 1.1 mph S1.8 kmh S 2.7 mph4.3 kmh 29.14 in986.8 mb 0.01 in0.3 mm 0.00 in0.0 mm 0.21 in5.3 mm
01:39 PM 46.6°F8.1°C 44.7°F7.1°C 93% Calm Calm 2.7 mph4.3 kmh 29.14 in986.8 mb 0.01 in0.3 mm 0.00 in0.0 mm 0.21 in5.3 mm
01:40 PM 46.6°F8.1°C 44.7°F7.1°C 93% Calm Calm 2.7 mph4.3 kmh 29.15 in987.1 mb 0.00 in0.0 mm 0.00 in0.0 mm 0.21 in5.3 mm
01:41 PM 46.6°F8.1°C 44.7°F7.1°C 93% 1.7 mph SSW2.7 kmh SSW 2.7 mph4.3 kmh 29.15 in987.1 mb 0.00 in0.0 mm 0.00 in0.0 mm 0.21 in5.3 mm
01:42 PM 46.6°F8.1°C 44.7°F7.1°C 93% Calm Calm 2.7 mph4.3 kmh 29.15 in987.1 mb 0.00 in0.0 mm 0.00 in0.0 mm 0.21 in5.3 mm
01:43 PM 46.6°F8.1°C 44.7°F7.1°C 93% 1.1 mph SSW1.8 kmh SSW 2.7 mph4.3 kmh 29.15 in987.1 mb 0.00 in0.0 mm 0.00 in0.0 mm 0.21 in5.3 mm
01:44 PM 46.6°F8.1°C 44.7°F7.1°C 93% Calm Calm 2.2 mph3.5 kmh 29.15 in987.1 mb 0.00 in0.0 mm 0.00 in0.0 mm 0.21 in5.3 mm
01:45 PM 46.6°F8.1°C 44.7°F7.1°C 93% Calm Calm 2.2 mph3.5 kmh 29.15 in987.1 mb 0.00 in0.0 mm 0.00 in0.0 mm 0.21 in5.3 mm
01:46 PM 46.6°F8.1°C 44.7°F7.1°C 93% Calm Calm 2.7 mph4.3 kmh 29.15 in987.1 mb 0.00 in0.0 mm 0.00 in0.0 mm 0.21 in5.3 mm
01:47 PM 46.6°F8.1°C 44.7°F7.1°C 93% 2.2 mph ENE3.5 kmh ENE 2.7 mph4.3 kmh 29.15 in987.1 mb 0.00 in0.0 mm 0.00 in0.0 mm 0.21 in5.3 mm
01:48 PM 46.6°F8.1°C 44.7°F7.1°C 93% Calm Calm 2.7 mph4.3 kmh 29.15 in987.1 mb 0.00 in0.0 mm 0.00 in0.0 mm 0.21 in5.3 mm
01:49 PM 46.6°F8.1°C 44.7°F7.1°C 93% Calm Calm 2.7 mph4.3 kmh 29.15 in987.1 mb 0.00 in0.0 mm 0.00 in0.0 mm 0.21 in5.3 mm
01:50 PM 46.6°F8.1°C 44.7°F7.1°C 93% Calm Calm 2.7 mph4.3 kmh 29.15 in987.1 mb 0.00 in0.0 mm 0.00 in0.0 mm 0.21 in5.3 mm
01:51 PM 46.8°F8.2°C 44.9°F7.2°C 93% Calm Calm 2.7 mph4.3 kmh 29.14 in986.8 mb 0.00 in0.0 mm 0.00 in0.0 mm 0.21 in5.3 mm
01:52 PM 46.8°F8.2°C 44.9°F7.2°C 93% 2.2 mph ESE3.5 kmh ESE 2.7 mph4.3 kmh 29.14 in986.8 mb 0.00 in0.0 mm 0.00 in0.0 mm 0.21 in5.3 mm
01:53 PM 46.8°F8.2°C 44.9°F7.2°C 93% Calm Calm 2.7 mph4.3 kmh 29.14 in986.8 mb 0.00 in0.0 mm 0.00 in0.0 mm 0.21 in5.3 mm
01:54 PM 46.8°F8.2°C 44.9°F7.2°C 93% Calm Calm 2.7 mph4.3 kmh 29.14 in986.8 mb 0.00 in0.0 mm 0.00 in0.0 mm 0.21 in5.3 mm
01:55 PM 46.4°F8.0°C 44.5°F6.9°C 93% Calm Calm 2.7 mph4.3 kmh 29.14 in986.8 mb 0.00 in0.0 mm 0.00 in0.0 mm 0.21 in5.3 mm
01:56 PM 46.2°F7.9°C 44.3°F6.8°C 93% 1.1 mph SW1.8 kmh SW 2.2 mph3.5 kmh 29.14 in986.8 mb 0.00 in0.0 mm 0.00 in0.0 mm 0.21 in5.3 mm
01:57 PM 46.4°F8.0°C 44.5°F6.9°C 93% Calm Calm 2.2 mph3.5 kmh 29.14 in986.8 mb 0.00 in0.0 mm 0.00 in0.0 mm 0.21 in5.3 mm
01:58 PM 46.2°F7.9°C 44.3°F6.8°C 93% 1.1 mph SSW1.8 kmh SSW 3.2 mph5.1 kmh 29.14 in986.8 mb 0.00 in0.0 mm 0.00 in0.0 mm 0.21 in5.3 mm
01:59 PM 46.2°F7.9°C 44.3°F6.8°C 93% 1.1 mph W1.8 kmh W 4.7 mph7.6 kmh 29.14 in986.8 mb 0.00 in0.0 mm 0.00 in0.0 mm 0.21 in5.3 mm
02:00 PM 46.2°F7.9°C 44.3°F6.8°C 93% 1.7 mph SSE2.7 kmh SSE 4.7 mph7.6 kmh 29.14 in986.8 mb 0.00 in0.0 mm 0.00 in0.0 mm 0.21 in5.3 mm
02:01 PM 46.0°F7.8°C 43.8°F6.6°C 92% 1.7 mph SSW2.7 kmh SSW 4.7 mph7.6 kmh 29.14 in986.8 mb 0.00 in0.0 mm 0.00 in0.0 mm 0.21 in5.3 mm
02:02 PM 45.7°F7.6°C 43.5°F6.4°C 92% 3.7 mph NNW6.0 kmh NNW 4.7 mph7.6 kmh 29.14 in986.8 mb 0.00 in0.0 mm 0.00 in0.0 mm 0.21 in5.3 mm
02:03 PM 45.7°F7.6°C 43.5°F6.4°C 92% 1.1 mph S1.8 kmh S 4.7 mph7.6 kmh 29.15 in987.1 mb 0.00 in0.0 mm 0.00 in0.0 mm 0.21 in5.3 mm
02:04 PM 45.9°F7.7°C 43.7°F6.5°C 92% Calm Calm 4.7 mph7.6 kmh 29.15 in987.1 mb 0.00 in0.0 mm 0.00 in0.0 mm 0.21 in5.3 mm
02:05 PM 45.9°F7.7°C 43.7°F6.5°C 92% 1.7 mph SSW2.7 kmh SSW 4.7 mph7.6 kmh 29.15 in987.1 mb 0.00 in0.0 mm 0.00 in0.0 mm 0.21 in5.3 mm
02:06 PM 45.9°F7.7°C 43.7°F6.5°C 92% 1.7 mph SSE2.7 kmh SSE 4.7 mph7.6 kmh 29.15 in987.1 mb 0.00 in0.0 mm 0.00 in0.0 mm 0.21 in5.3 mm
02:07 PM 45.7°F7.6°C 43.5°F6.4°C 92% 1.7 mph ESE2.7 kmh ESE 4.7 mph7.6 kmh 29.15 in987.1 mb 0.00 in0.0 mm 0.00 in0.0 mm 0.21 in5.3 mm
02:08 PM 45.7°F7.6°C 43.5°F6.4°C 92% 2.2 mph SW3.5 kmh SW 4.7 mph7.6 kmh 29.15 in987.1 mb 0.00 in0.0 mm 0.00 in0.0 mm 0.21 in5.3 mm
02:09 PM 45.7°F7.6°C 43.5°F6.4°C 92% 1.7 mph SSW2.7 kmh SSW 3.7 mph6.0 kmh 29.15 in987.1 mb 0.00 in0.0 mm 0.00 in0.0 mm 0.21 in5.3 mm
02:10 PM 45.7°F7.6°C 43.5°F6.4°C 92% Calm Calm 3.7 mph6.0 kmh 29.15 in987.1 mb 0.00 in0.0 mm 0.00 in0.0 mm 0.21 in5.3 mm
02:11 PM 45.7°F7.6°C 43.5°F6.4°C 92% 1.7 mph S2.7 kmh S 3.7 mph6.0 kmh 29.15 in987.1 mb 0.00 in0.0 mm 0.00 in0.0 mm 0.21 in5.3 mm
02:12 PM 45.7°F7.6°C 43.5°F6.4°C 92% Calm Calm 3.7 mph6.0 kmh 29.15 in987.1 mb 0.00 in0.0 mm 0.00 in0.0 mm 0.21 in5.3 mm
02:13 PM 45.7°F7.6°C 43.5°F6.4°C 92% Calm Calm 3.7 mph6.0 kmh 29.15 in987.1 mb 0.00 in0.0 mm 0.00 in0.0 mm 0.21 in5.3 mm
02:14 PM 45.9°F7.7°C 43.7°F6.5°C 92% 1.7 mph S2.7 kmh S 3.7 mph6.0 kmh 29.15 in987.1 mb 0.00 in0.0 mm 0.00 in0.0 mm 0.21 in5.3 mm
02:15 PM 45.9°F7.7°C 43.7°F6.5°C 92% 1.1 mph S1.8 kmh S 3.7 mph6.0 kmh 29.15 in987.1 mb 0.00 in0.0 mm 0.00 in0.0 mm 0.21 in5.3 mm
02:16 PM 45.9°F7.7°C 43.7°F6.5°C 92% 2.2 mph SSW3.5 kmh SSW 3.7 mph6.0 kmh 29.15 in987.1 mb 0.00 in0.0 mm 0.00 in0.0 mm 0.21 in5.3 mm
02:17 PM 45.9°F7.7°C 43.7°F6.5°C 92% 4.7 mph SSW7.6 kmh SSW 4.7 mph7.6 kmh 29.15 in987.1 mb 0.00 in0.0 mm 0.00 in0.0 mm 0.21 in5.3 mm
02:18 PM 45.9°F7.7°C 43.7°F6.5°C 92% 1.1 mph SSW1.8 kmh SSW 4.7 mph7.6 kmh 29.15 in987.1 mb 0.00 in0.0 mm 0.00 in0.0 mm 0.21 in5.3 mm
02:19 PM 45.9°F7.7°C 43.7°F6.5°C 92% Calm Calm 4.7 mph7.6 kmh 29.15 in987.1 mb 0.00 in0.0 mm 0.00 in0.0 mm 0.21 in5.3 mm
02:20 PM 45.9°F7.7°C 43.7°F6.5°C 92% 1.7 mph SSW2.7 kmh SSW 4.7 mph7.6 kmh 29.15 in987.1 mb 0.00 in0.0 mm 0.00 in0.0 mm 0.21 in5.3 mm
02:21 PM 45.9°F7.7°C 43.7°F6.5°C 92% 1.7 mph S2.7 kmh S 4.7 mph7.6 kmh 29.15 in987.1 mb 0.00 in0.0 mm 0.00 in0.0 mm 0.21 in5.3 mm
02:22 PM 45.7°F7.6°C 43.5°F6.4°C 92% Calm Calm 4.7 mph7.6 kmh 29.15 in987.1 mb 0.00 in0.0 mm 0.00 in0.0 mm 0.21 in5.3 mm
02:23 PM 45.5°F7.5°C 43.3°F6.3°C 92% 1.1 mph S1.8 kmh S 4.7 mph7.6 kmh 29.15 in987.1 mb 0.00 in0.0 mm 0.00 in0.0 mm 0.21 in5.3 mm
02:24 PM 45.5°F7.5°C 43.3°F6.3°C 92% Calm Calm 4.7 mph7.6 kmh 29.15 in987.1 mb 0.00 in0.0 mm 0.00 in0.0 mm 0.21 in5.3 mm
02:25 PM 45.5°F7.5°C 43.3°F6.3°C 92% 1.1 mph SSW1.8 kmh SSW 4.7 mph7.6 kmh 29.15 in987.1 mb 0.00 in0.0 mm 0.00 in0.0 mm 0.21 in5.3 mm
02:26 PM 45.5°F7.5°C 43.3°F6.3°C 92% 1.1 mph SSW1.8 kmh SSW 4.7 mph7.6 kmh 29.15 in987.1 mb 0.00 in0.0 mm 0.00 in0.0 mm 0.21 in5.3 mm
02:27 PM 45.5°F7.5°C 43.3°F6.3°C 92% Calm Calm 4.7 mph7.6 kmh 29.15 in987.1 mb 0.00 in0.0 mm 0.00 in0.0 mm 0.21 in5.3 mm
02:28 PM 45.5°F7.5°C 43.3°F6.3°C 92% 1.1 mph S1.8 kmh S 4.7 mph7.6 kmh 29.15 in987.1 mb 0.00 in0.0 mm 0.00 in0.0 mm 0.21 in5.3 mm
02:29 PM 45.1°F7.3°C 42.9°F6.1°C 92% 2.2 mph S3.5 kmh S 4.7 mph7.6 kmh 29.15 in987.1 mb 0.00 in0.0 mm 0.00 in0.0 mm 0.21 in5.3 mm
02:30 PM 45.1°F7.3°C 42.9°F6.1°C 92% 4.2 mph ESE6.8 kmh ESE 4.7 mph7.6 kmh 29.15 in987.1 mb 0.00 in0.0 mm 0.00 in0.0 mm 0.21 in5.3 mm
02:31 PM 45.0°F7.2°C 42.8°F6.0°C 92% 1.1 mph SSW1.8 kmh SSW 4.7 mph7.6 kmh 29.15 in987.1 mb 0.00 in0.0 mm 0.00 in0.0 mm 0.21 in5.3 mm
02:32 PM 44.8°F7.1°C 42.6°F5.9°C 92% 2.2 mph S3.5 kmh S 4.2 mph6.8 kmh 29.15 in987.1 mb 0.00 in0.0 mm 0.00 in0.0 mm 0.21 in5.3 mm
02:33 PM 45.0°F7.2°C 42.8°F6.0°C 92% 1.7 mph SSW2.7 kmh SSW 4.2 mph6.8 kmh 29.15 in987.1 mb 0.00 in0.0 mm 0.00 in0.0 mm 0.21 in5.3 mm
02:34 PM 45.0°F7.2°C 42.8°F6.0°C 92% 3.2 mph SE5.1 kmh SE 4.2 mph6.8 kmh 29.15 in987.1 mb 0.00 in0.0 mm 0.00 in0.0 mm 0.21 in5.3 mm
02:35 PM 44.6°F7.0°C 42.4°F5.8°C 92% 1.7 mph W2.7 kmh W 4.2 mph6.8 kmh 29.15 in987.1 mb 0.00 in0.0 mm 0.00 in0.0 mm 0.21 in5.3 mm
02:36 PM 44.4°F6.9°C 42.2°F5.7°C 92% 1.7 mph S2.7 kmh S 4.2 mph6.8 kmh 29.15 in987.1 mb 0.00 in0.0 mm 0.00 in0.0 mm 0.21 in5.3 mm